<?xml version="1.0" encoding="UTF-8" standalone="no" ?>
<gpx xmlns="http://www.topografix.com/GPX/1/1" xmlns:xsi="http://www.w3.org/2001/XMLSchema-instance" xsi:schemaLocation="http://www.topografix.com/GPX/1/1 http://www.topografix.com/GPX/1/1/gpx.xsd" version="1.1" creator="VisuGPX - https://www.visugpx.com">
  <metadata>
    <name>Sappey deniv</name>
  </metadata>
  <trk>
    <name><![CDATA[Deniv2 on GPSies.com]]></name>
    <trkseg>
      <trkpt lat="45.25987" lon="5.7773">
        <ele>1008</ele>
        <time>2010-01-01T00:00:00Z</time>
      </trkpt>
      <trkpt lat="45.25987" lon="5.77729">
        <ele>1008</ele>
        <time>2010-01-01T00:00:00Z</time>
      </trkpt>
      <trkpt lat="45.2599" lon="5.7777">
        <ele>1008</ele>
        <time>2010-01-01T00:00:11Z</time>
      </trkpt>
      <trkpt lat="45.2599" lon="5.77769">
        <ele>1008</ele>
        <time>2010-01-01T00:00:12Z</time>
      </trkpt>
      <trkpt lat="45.25991" lon="5.77774">
        <ele>1008</ele>
        <time>2010-01-01T00:00:13Z</time>
      </trkpt>
      <trkpt lat="45.25984" lon="5.77796">
        <ele>1007</ele>
        <time>2010-01-01T00:00:20Z</time>
      </trkpt>
      <trkpt lat="45.25982" lon="5.77798">
        <ele>1007</ele>
        <time>2010-01-01T00:00:21Z</time>
      </trkpt>
      <trkpt lat="45.25977" lon="5.77802">
        <ele>1007</ele>
        <time>2010-01-01T00:00:23Z</time>
      </trkpt>
      <trkpt lat="45.25942" lon="5.77821">
        <ele>1009</ele>
        <time>2010-01-01T00:00:38Z</time>
      </trkpt>
      <trkpt lat="45.25931" lon="5.77832">
        <ele>1010</ele>
        <time>2010-01-01T00:00:44Z</time>
      </trkpt>
      <trkpt lat="45.2593" lon="5.77831">
        <ele>1010</ele>
        <time>2010-01-01T00:00:44Z</time>
      </trkpt>
      <trkpt lat="45.25903" lon="5.77857">
        <ele>1010</ele>
        <time>2010-01-01T00:00:57Z</time>
      </trkpt>
      <trkpt lat="45.25898" lon="5.77861">
        <ele>1010</ele>
        <time>2010-01-01T00:00:59Z</time>
      </trkpt>
      <trkpt lat="45.25875" lon="5.779">
        <ele>1005</ele>
        <time>2010-01-01T00:01:14Z</time>
      </trkpt>
      <trkpt lat="45.25872" lon="5.77903">
        <ele>1005</ele>
        <time>2010-01-01T00:01:15Z</time>
      </trkpt>
      <trkpt lat="45.25866" lon="5.77908">
        <ele>1004</ele>
        <time>2010-01-01T00:01:18Z</time>
      </trkpt>
      <trkpt lat="45.25849" lon="5.77915">
        <ele>1004</ele>
        <time>2010-01-01T00:01:25Z</time>
      </trkpt>
      <trkpt lat="45.2581" lon="5.77923">
        <ele>1005</ele>
        <time>2010-01-01T00:01:41Z</time>
      </trkpt>
      <trkpt lat="45.25843" lon="5.7816">
        <ele>1007</ele>
        <time>2010-01-01T00:02:49Z</time>
      </trkpt>
      <trkpt lat="45.25841" lon="5.78164">
        <ele>1006</ele>
        <time>2010-01-01T00:02:50Z</time>
      </trkpt>
      <trkpt lat="45.25843" lon="5.7816">
        <ele>1007</ele>
        <time>2010-01-01T00:02:52Z</time>
      </trkpt>
      <trkpt lat="45.25868" lon="5.78221">
        <ele>1009</ele>
        <time>2010-01-01T00:03:12Z</time>
      </trkpt>
      <trkpt lat="45.25949" lon="5.78454">
        <ele>1017</ele>
        <time>2010-01-01T00:04:25Z</time>
      </trkpt>
      <trkpt lat="45.25949" lon="5.78453">
        <ele>1017</ele>
        <time>2010-01-01T00:04:25Z</time>
      </trkpt>
      <trkpt lat="45.25972" lon="5.78503">
        <ele>1019</ele>
        <time>2010-01-01T00:04:42Z</time>
      </trkpt>
      <trkpt lat="45.25992" lon="5.78535">
        <ele>1020</ele>
        <time>2010-01-01T00:04:54Z</time>
      </trkpt>
      <trkpt lat="45.26006" lon="5.7855">
        <ele>1021</ele>
        <time>2010-01-01T00:05:01Z</time>
      </trkpt>
      <trkpt lat="45.26005" lon="5.7855">
        <ele>1021</ele>
        <time>2010-01-01T00:05:01Z</time>
      </trkpt>
      <trkpt lat="45.26016" lon="5.78565">
        <ele>1022</ele>
        <time>2010-01-01T00:05:07Z</time>
      </trkpt>
      <trkpt lat="45.26066" lon="5.78656">
        <ele>1025</ele>
        <time>2010-01-01T00:05:40Z</time>
      </trkpt>
      <trkpt lat="45.26076" lon="5.78681">
        <ele>1024</ele>
        <time>2010-01-01T00:05:48Z</time>
      </trkpt>
      <trkpt lat="45.26075" lon="5.78681">
        <ele>1024</ele>
        <time>2010-01-01T00:05:49Z</time>
      </trkpt>
      <trkpt lat="45.26087" lon="5.7872">
        <ele>1021</ele>
        <time>2010-01-01T00:06:01Z</time>
      </trkpt>
      <trkpt lat="45.26089" lon="5.78733">
        <ele>1020</ele>
        <time>2010-01-01T00:06:04Z</time>
      </trkpt>
      <trkpt lat="45.26089" lon="5.78732">
        <ele>1020</ele>
        <time>2010-01-01T00:06:05Z</time>
      </trkpt>
      <trkpt lat="45.26097" lon="5.78776">
        <ele>1023</ele>
        <time>2010-01-01T00:06:17Z</time>
      </trkpt>
      <trkpt lat="45.26096" lon="5.78776">
        <ele>1023</ele>
        <time>2010-01-01T00:06:18Z</time>
      </trkpt>
      <trkpt lat="45.26111" lon="5.78809">
        <ele>1031</ele>
        <time>2010-01-01T00:06:29Z</time>
      </trkpt>
      <trkpt lat="45.26199" lon="5.78989">
        <ele>1042</ele>
        <time>2010-01-01T00:07:31Z</time>
      </trkpt>
      <trkpt lat="45.26199" lon="5.78988">
        <ele>1042</ele>
        <time>2010-01-01T00:07:31Z</time>
      </trkpt>
      <trkpt lat="45.26203" lon="5.78995">
        <ele>1043</ele>
        <time>2010-01-01T00:07:33Z</time>
      </trkpt>
      <trkpt lat="45.2621" lon="5.79">
        <ele>1044</ele>
        <time>2010-01-01T00:07:37Z</time>
      </trkpt>
      <trkpt lat="45.2621" lon="5.78999">
        <ele>1044</ele>
        <time>2010-01-01T00:07:37Z</time>
      </trkpt>
      <trkpt lat="45.26217" lon="5.79002">
        <ele>1045</ele>
        <time>2010-01-01T00:07:40Z</time>
      </trkpt>
      <trkpt lat="45.26249" lon="5.79002">
        <ele>1053</ele>
        <time>2010-01-01T00:07:53Z</time>
      </trkpt>
      <trkpt lat="45.26248" lon="5.79002">
        <ele>1053</ele>
        <time>2010-01-01T00:07:53Z</time>
      </trkpt>
      <trkpt lat="45.26256" lon="5.79005">
        <ele>1054</ele>
        <time>2010-01-01T00:07:56Z</time>
      </trkpt>
      <trkpt lat="45.26273" lon="5.79019">
        <ele>1053</ele>
        <time>2010-01-01T00:08:04Z</time>
      </trkpt>
      <trkpt lat="45.26305" lon="5.79051">
        <ele>1052</ele>
        <time>2010-01-01T00:08:20Z</time>
      </trkpt>
      <trkpt lat="45.26305" lon="5.7905">
        <ele>1052</ele>
        <time>2010-01-01T00:08:20Z</time>
      </trkpt>
      <trkpt lat="45.26324" lon="5.79068">
        <ele>1057</ele>
        <time>2010-01-01T00:08:29Z</time>
      </trkpt>
      <trkpt lat="45.26347" lon="5.79094">
        <ele>1058</ele>
        <time>2010-01-01T00:08:41Z</time>
      </trkpt>
      <trkpt lat="45.26354" lon="5.79106">
        <ele>1058</ele>
        <time>2010-01-01T00:08:45Z</time>
      </trkpt>
      <trkpt lat="45.26354" lon="5.79105">
        <ele>1058</ele>
        <time>2010-01-01T00:08:46Z</time>
      </trkpt>
      <trkpt lat="45.26372" lon="5.79136">
        <ele>1062</ele>
        <time>2010-01-01T00:08:57Z</time>
      </trkpt>
      <trkpt lat="45.26429" lon="5.79196">
        <ele>1065</ele>
        <time>2010-01-01T00:09:25Z</time>
      </trkpt>
      <trkpt lat="45.26428" lon="5.79196">
        <ele>1065</ele>
        <time>2010-01-01T00:09:26Z</time>
      </trkpt>
      <trkpt lat="45.26505" lon="5.79277">
        <ele>1072</ele>
        <time>2010-01-01T00:10:04Z</time>
      </trkpt>
      <trkpt lat="45.26504" lon="5.79277">
        <ele>1072</ele>
        <time>2010-01-01T00:10:05Z</time>
      </trkpt>
      <trkpt lat="45.26569" lon="5.79346">
        <ele>1077</ele>
        <time>2010-01-01T00:10:37Z</time>
      </trkpt>
      <trkpt lat="45.26569" lon="5.79345">
        <ele>1077</ele>
        <time>2010-01-01T00:10:37Z</time>
      </trkpt>
      <trkpt lat="45.26601" lon="5.79382">
        <ele>1080</ele>
        <time>2010-01-01T00:10:54Z</time>
      </trkpt>
      <trkpt lat="45.26601" lon="5.79381">
        <ele>1080</ele>
        <time>2010-01-01T00:10:54Z</time>
      </trkpt>
      <trkpt lat="45.26619" lon="5.79416">
        <ele>1076</ele>
        <time>2010-01-01T00:11:06Z</time>
      </trkpt>
      <trkpt lat="45.26626" lon="5.79426">
        <ele>1077</ele>
        <time>2010-01-01T00:11:10Z</time>
      </trkpt>
      <trkpt lat="45.26626" lon="5.79425">
        <ele>1077</ele>
        <time>2010-01-01T00:11:11Z</time>
      </trkpt>
      <trkpt lat="45.26659" lon="5.7948">
        <ele>1084</ele>
        <time>2010-01-01T00:11:31Z</time>
      </trkpt>
      <trkpt lat="45.26713" lon="5.79547">
        <ele>1101</ele>
        <time>2010-01-01T00:12:00Z</time>
      </trkpt>
      <trkpt lat="45.26713" lon="5.79546">
        <ele>1101</ele>
        <time>2010-01-01T00:12:00Z</time>
      </trkpt>
      <trkpt lat="45.26745" lon="5.79559">
        <ele>1108</ele>
        <time>2010-01-01T00:12:13Z</time>
      </trkpt>
      <trkpt lat="45.26754" lon="5.79565">
        <ele>1109</ele>
        <time>2010-01-01T00:12:17Z</time>
      </trkpt>
      <trkpt lat="45.26753" lon="5.79565">
        <ele>1109</ele>
        <time>2010-01-01T00:12:18Z</time>
      </trkpt>
      <trkpt lat="45.26788" lon="5.79588">
        <ele>1110</ele>
        <time>2010-01-01T00:12:33Z</time>
      </trkpt>
      <trkpt lat="45.26788" lon="5.79587">
        <ele>1110</ele>
        <time>2010-01-01T00:12:33Z</time>
      </trkpt>
      <trkpt lat="45.26814" lon="5.796">
        <ele>1112</ele>
        <time>2010-01-01T00:12:44Z</time>
      </trkpt>
      <trkpt lat="45.26816" lon="5.79603">
        <ele>1111</ele>
        <time>2010-01-01T00:12:45Z</time>
      </trkpt>
      <trkpt lat="45.26816" lon="5.79602">
        <ele>1111</ele>
        <time>2010-01-01T00:12:46Z</time>
      </trkpt>
      <trkpt lat="45.26846" lon="5.79637">
        <ele>1111</ele>
        <time>2010-01-01T00:13:01Z</time>
      </trkpt>
      <trkpt lat="45.26869" lon="5.79683">
        <ele>1106</ele>
        <time>2010-01-01T00:13:17Z</time>
      </trkpt>
      <trkpt lat="45.26874" lon="5.79689">
        <ele>1107</ele>
        <time>2010-01-01T00:13:20Z</time>
      </trkpt>
      <trkpt lat="45.26874" lon="5.79688">
        <ele>1107</ele>
        <time>2010-01-01T00:13:20Z</time>
      </trkpt>
      <trkpt lat="45.26895" lon="5.79718">
        <ele>1109</ele>
        <time>2010-01-01T00:13:32Z</time>
      </trkpt>
      <trkpt lat="45.26899" lon="5.7972">
        <ele>1110</ele>
        <time>2010-01-01T00:13:34Z</time>
      </trkpt>
      <trkpt lat="45.26898" lon="5.7972">
        <ele>1109</ele>
        <time>2010-01-01T00:13:34Z</time>
      </trkpt>
      <trkpt lat="45.26942" lon="5.79747">
        <ele>1118</ele>
        <time>2010-01-01T00:13:53Z</time>
      </trkpt>
      <trkpt lat="45.26942" lon="5.79746">
        <ele>1118</ele>
        <time>2010-01-01T00:13:54Z</time>
      </trkpt>
      <trkpt lat="45.26948" lon="5.7975">
        <ele>1120</ele>
        <time>2010-01-01T00:13:56Z</time>
      </trkpt>
      <trkpt lat="45.26976" lon="5.79786">
        <ele>1125</ele>
        <time>2010-01-01T00:14:11Z</time>
      </trkpt>
      <trkpt lat="45.26975" lon="5.79786">
        <ele>1125</ele>
        <time>2010-01-01T00:14:12Z</time>
      </trkpt>
      <trkpt lat="45.27014" lon="5.79836">
        <ele>1126</ele>
        <time>2010-01-01T00:14:33Z</time>
      </trkpt>
      <trkpt lat="45.27084" lon="5.79897">
        <ele>1137</ele>
        <time>2010-01-01T00:15:06Z</time>
      </trkpt>
      <trkpt lat="45.27098" lon="5.79925">
        <ele>1138</ele>
        <time>2010-01-01T00:15:15Z</time>
      </trkpt>
      <trkpt lat="45.27114" lon="5.79945">
        <ele>1140</ele>
        <time>2010-01-01T00:15:24Z</time>
      </trkpt>
      <trkpt lat="45.27106" lon="5.79991">
        <ele>1137</ele>
        <time>2010-01-01T00:15:37Z</time>
      </trkpt>
      <trkpt lat="45.27152" lon="5.80132">
        <ele>1157</ele>
        <time>2010-01-01T00:16:21Z</time>
      </trkpt>
      <trkpt lat="45.27158" lon="5.80166">
        <ele>1163</ele>
        <time>2010-01-01T00:16:31Z</time>
      </trkpt>
      <trkpt lat="45.27153" lon="5.80181">
        <ele>1165</ele>
        <time>2010-01-01T00:16:35Z</time>
      </trkpt>
      <trkpt lat="45.27145" lon="5.80181">
        <ele>1165</ele>
        <time>2010-01-01T00:16:39Z</time>
      </trkpt>
      <trkpt lat="45.27137" lon="5.80174">
        <ele>1164</ele>
        <time>2010-01-01T00:16:43Z</time>
      </trkpt>
      <trkpt lat="45.27121" lon="5.80147">
        <ele>1162</ele>
        <time>2010-01-01T00:16:53Z</time>
      </trkpt>
      <trkpt lat="45.27091" lon="5.80094">
        <ele>1160</ele>
        <time>2010-01-01T00:17:12Z</time>
      </trkpt>
      <trkpt lat="45.27051" lon="5.80055">
        <ele>1167</ele>
        <time>2010-01-01T00:17:31Z</time>
      </trkpt>
      <trkpt lat="45.27028" lon="5.80042">
        <ele>1171</ele>
        <time>2010-01-01T00:17:41Z</time>
      </trkpt>
      <trkpt lat="45.26998" lon="5.80024">
        <ele>1171</ele>
        <time>2010-01-01T00:17:54Z</time>
      </trkpt>
      <trkpt lat="45.26971" lon="5.80008">
        <ele>1169</ele>
        <time>2010-01-01T00:18:06Z</time>
      </trkpt>
      <trkpt lat="45.2695" lon="5.8">
        <ele>1168</ele>
        <time>2010-01-01T00:18:14Z</time>
      </trkpt>
      <trkpt lat="45.26921" lon="5.80006">
        <ele>1174</ele>
        <time>2010-01-01T00:18:26Z</time>
      </trkpt>
      <trkpt lat="45.26901" lon="5.79977">
        <ele>1173</ele>
        <time>2010-01-01T00:18:37Z</time>
      </trkpt>
      <trkpt lat="45.26884" lon="5.79959">
        <ele>1174</ele>
        <time>2010-01-01T00:18:46Z</time>
      </trkpt>
      <trkpt lat="45.26865" lon="5.79943">
        <ele>1174</ele>
        <time>2010-01-01T00:18:55Z</time>
      </trkpt>
      <trkpt lat="45.26859" lon="5.79944">
        <ele>1175</ele>
        <time>2010-01-01T00:18:57Z</time>
      </trkpt>
      <trkpt lat="45.26854" lon="5.79953">
        <ele>1177</ele>
        <time>2010-01-01T00:19:00Z</time>
      </trkpt>
      <trkpt lat="45.26856" lon="5.79967">
        <ele>1179</ele>
        <time>2010-01-01T00:19:04Z</time>
      </trkpt>
      <trkpt lat="45.26882" lon="5.79985">
        <ele>1179</ele>
        <time>2010-01-01T00:19:16Z</time>
      </trkpt>
      <trkpt lat="45.26899" lon="5.80005">
        <ele>1180</ele>
        <time>2010-01-01T00:19:25Z</time>
      </trkpt>
      <trkpt lat="45.26915" lon="5.80032">
        <ele>1182</ele>
        <time>2010-01-01T00:19:35Z</time>
      </trkpt>
      <trkpt lat="45.26907" lon="5.80046">
        <ele>1188</ele>
        <time>2010-01-01T00:19:40Z</time>
      </trkpt>
      <trkpt lat="45.2689" lon="5.80034">
        <ele>1188</ele>
        <time>2010-01-01T00:19:47Z</time>
      </trkpt>
      <trkpt lat="45.26857" lon="5.80037">
        <ele>1191</ele>
        <time>2010-01-01T00:20:01Z</time>
      </trkpt>
      <trkpt lat="45.2682" lon="5.80082">
        <ele>1202</ele>
        <time>2010-01-01T00:20:20Z</time>
      </trkpt>
      <trkpt lat="45.26811" lon="5.80088">
        <ele>1202</ele>
        <time>2010-01-01T00:20:24Z</time>
      </trkpt>
      <trkpt lat="45.26755" lon="5.80066">
        <ele>1202</ele>
        <time>2010-01-01T00:20:47Z</time>
      </trkpt>
      <trkpt lat="45.2669" lon="5.80061">
        <ele>1213</ele>
        <time>2010-01-01T00:21:13Z</time>
      </trkpt>
      <trkpt lat="45.26656" lon="5.80047">
        <ele>1219</ele>
        <time>2010-01-01T00:21:27Z</time>
      </trkpt>
      <trkpt lat="45.26606" lon="5.80009">
        <ele>1226</ele>
        <time>2010-01-01T00:21:50Z</time>
      </trkpt>
      <trkpt lat="45.26559" lon="5.79976">
        <ele>1228</ele>
        <time>2010-01-01T00:22:11Z</time>
      </trkpt>
      <trkpt lat="45.2652" lon="5.79953">
        <ele>1229</ele>
        <time>2010-01-01T00:22:28Z</time>
      </trkpt>
      <trkpt lat="45.26461" lon="5.79932">
        <ele>1237</ele>
        <time>2010-01-01T00:22:53Z</time>
      </trkpt>
      <trkpt lat="45.26422" lon="5.79914">
        <ele>1241</ele>
        <time>2010-01-01T00:23:09Z</time>
      </trkpt>
      <trkpt lat="45.2639" lon="5.79897">
        <ele>1244</ele>
        <time>2010-01-01T00:23:23Z</time>
      </trkpt>
      <trkpt lat="45.26362" lon="5.79874">
        <ele>1250</ele>
        <time>2010-01-01T00:23:36Z</time>
      </trkpt>
      <trkpt lat="45.26336" lon="5.7984">
        <ele>1254</ele>
        <time>2010-01-01T00:23:50Z</time>
      </trkpt>
      <trkpt lat="45.26337" lon="5.79796">
        <ele>1250</ele>
        <time>2010-01-01T00:24:02Z</time>
      </trkpt>
      <trkpt lat="45.26326" lon="5.7979">
        <ele>1249</ele>
        <time>2010-01-01T00:24:07Z</time>
      </trkpt>
      <trkpt lat="45.26269" lon="5.79801">
        <ele>1258</ele>
        <time>2010-01-01T00:24:30Z</time>
      </trkpt>
      <trkpt lat="45.26252" lon="5.79796">
        <ele>1262</ele>
        <time>2010-01-01T00:24:37Z</time>
      </trkpt>
      <trkpt lat="45.26235" lon="5.79779">
        <ele>1262</ele>
        <time>2010-01-01T00:24:45Z</time>
      </trkpt>
      <trkpt lat="45.26213" lon="5.79756">
        <ele>1265</ele>
        <time>2010-01-01T00:24:56Z</time>
      </trkpt>
      <trkpt lat="45.262" lon="5.79747">
        <ele>1268</ele>
        <time>2010-01-01T00:25:02Z</time>
      </trkpt>
      <trkpt lat="45.26198" lon="5.79758">
        <ele>1271</ele>
        <time>2010-01-01T00:25:05Z</time>
      </trkpt>
      <trkpt lat="45.26212" lon="5.79781">
        <ele>1270</ele>
        <time>2010-01-01T00:25:14Z</time>
      </trkpt>
      <trkpt lat="45.26235" lon="5.79827">
        <ele>1273</ele>
        <time>2010-01-01T00:25:30Z</time>
      </trkpt>
      <trkpt lat="45.26295" lon="5.79875">
        <ele>1272</ele>
        <time>2010-01-01T00:25:57Z</time>
      </trkpt>
      <trkpt lat="45.2633" lon="5.79934">
        <ele>1278</ele>
        <time>2010-01-01T00:26:19Z</time>
      </trkpt>
      <trkpt lat="45.26385" lon="5.80002">
        <ele>1285</ele>
        <time>2010-01-01T00:26:48Z</time>
      </trkpt>
      <trkpt lat="45.26436" lon="5.8005">
        <ele>1288</ele>
        <time>2010-01-01T00:27:13Z</time>
      </trkpt>
      <trkpt lat="45.26491" lon="5.80109">
        <ele>1292</ele>
        <time>2010-01-01T00:27:40Z</time>
      </trkpt>
      <trkpt lat="45.2654" lon="5.80166">
        <ele>1295</ele>
        <time>2010-01-01T00:28:06Z</time>
      </trkpt>
      <trkpt lat="45.26582" lon="5.80222">
        <ele>1303</ele>
        <time>2010-01-01T00:28:29Z</time>
      </trkpt>
      <trkpt lat="45.26622" lon="5.80272">
        <ele>1307</ele>
        <time>2010-01-01T00:28:50Z</time>
      </trkpt>
      <trkpt lat="45.26671" lon="5.80323">
        <ele>1311</ele>
        <time>2010-01-01T00:29:14Z</time>
      </trkpt>
      <trkpt lat="45.26707" lon="5.80375">
        <ele>1318</ele>
        <time>2010-01-01T00:29:35Z</time>
      </trkpt>
      <trkpt lat="45.26746" lon="5.80423">
        <ele>1320</ele>
        <time>2010-01-01T00:29:56Z</time>
      </trkpt>
      <trkpt lat="45.26786" lon="5.80477">
        <ele>1327</ele>
        <time>2010-01-01T00:30:18Z</time>
      </trkpt>
      <trkpt lat="45.26847" lon="5.80553">
        <ele>1339</ele>
        <time>2010-01-01T00:30:50Z</time>
      </trkpt>
      <trkpt lat="45.26899" lon="5.8061">
        <ele>1342</ele>
        <time>2010-01-01T00:31:16Z</time>
      </trkpt>
      <trkpt lat="45.26958" lon="5.80718">
        <ele>1352</ele>
        <time>2010-01-01T00:31:55Z</time>
      </trkpt>
      <trkpt lat="45.27022" lon="5.80798">
        <ele>1364</ele>
        <time>2010-01-01T00:32:29Z</time>
      </trkpt>
      <trkpt lat="45.27057" lon="5.80844">
        <ele>1374</ele>
        <time>2010-01-01T00:32:48Z</time>
      </trkpt>
      <trkpt lat="45.27129" lon="5.80898">
        <ele>1372</ele>
        <time>2010-01-01T00:33:21Z</time>
      </trkpt>
      <trkpt lat="45.27179" lon="5.80922">
        <ele>1376</ele>
        <time>2010-01-01T00:33:42Z</time>
      </trkpt>
      <trkpt lat="45.27233" lon="5.80905">
        <ele>1369</ele>
        <time>2010-01-01T00:34:04Z</time>
      </trkpt>
      <trkpt lat="45.27288" lon="5.8094">
        <ele>1367</ele>
        <time>2010-01-01T00:34:28Z</time>
      </trkpt>
      <trkpt lat="45.2731" lon="5.80978">
        <ele>1367</ele>
        <time>2010-01-01T00:34:42Z</time>
      </trkpt>
      <trkpt lat="45.27337" lon="5.8099">
        <ele>1367</ele>
        <time>2010-01-01T00:34:53Z</time>
      </trkpt>
      <trkpt lat="45.27352" lon="5.8099">
        <ele>1369</ele>
        <time>2010-01-01T00:34:59Z</time>
      </trkpt>
      <trkpt lat="45.27364" lon="5.80976">
        <ele>1369</ele>
        <time>2010-01-01T00:35:06Z</time>
      </trkpt>
      <trkpt lat="45.27374" lon="5.80957">
        <ele>1366</ele>
        <time>2010-01-01T00:35:12Z</time>
      </trkpt>
      <trkpt lat="45.27392" lon="5.80945">
        <ele>1364</ele>
        <time>2010-01-01T00:35:20Z</time>
      </trkpt>
      <trkpt lat="45.27414" lon="5.80955">
        <ele>1364</ele>
        <time>2010-01-01T00:35:30Z</time>
      </trkpt>
      <trkpt lat="45.27437" lon="5.80984">
        <ele>1368</ele>
        <time>2010-01-01T00:35:42Z</time>
      </trkpt>
      <trkpt lat="45.27456" lon="5.81035">
        <ele>1376</ele>
        <time>2010-01-01T00:35:58Z</time>
      </trkpt>
      <trkpt lat="45.27468" lon="5.81083">
        <ele>1376</ele>
        <time>2010-01-01T00:36:13Z</time>
      </trkpt>
      <trkpt lat="45.27467" lon="5.81133">
        <ele>1380</ele>
        <time>2010-01-01T00:36:27Z</time>
      </trkpt>
      <trkpt lat="45.27455" lon="5.8119">
        <ele>1389</ele>
        <time>2010-01-01T00:36:43Z</time>
      </trkpt>
      <trkpt lat="45.27451" lon="5.81222">
        <ele>1392</ele>
        <time>2010-01-01T00:36:53Z</time>
      </trkpt>
      <trkpt lat="45.27486" lon="5.8127">
        <ele>1384</ele>
        <time>2010-01-01T00:37:12Z</time>
      </trkpt>
      <trkpt lat="45.2755" lon="5.81353">
        <ele>1397</ele>
        <time>2010-01-01T00:37:47Z</time>
      </trkpt>
      <trkpt lat="45.27582" lon="5.81387">
        <ele>1397</ele>
        <time>2010-01-01T00:38:03Z</time>
      </trkpt>
      <trkpt lat="45.27599" lon="5.81409">
        <ele>1402</ele>
        <time>2010-01-01T00:38:12Z</time>
      </trkpt>
      <trkpt lat="45.27623" lon="5.81411">
        <ele>1405</ele>
        <time>2010-01-01T00:38:21Z</time>
      </trkpt>
      <trkpt lat="45.27637" lon="5.81404">
        <ele>1405</ele>
        <time>2010-01-01T00:38:27Z</time>
      </trkpt>
      <trkpt lat="45.27704" lon="5.8134">
        <ele>1398</ele>
        <time>2010-01-01T00:39:00Z</time>
      </trkpt>
      <trkpt lat="45.27726" lon="5.81301">
        <ele>1402</ele>
        <time>2010-01-01T00:39:14Z</time>
      </trkpt>
      <trkpt lat="45.27727" lon="5.81275">
        <ele>1401</ele>
        <time>2010-01-01T00:39:21Z</time>
      </trkpt>
      <trkpt lat="45.27718" lon="5.81245">
        <ele>1395</ele>
        <time>2010-01-01T00:39:30Z</time>
      </trkpt>
      <trkpt lat="45.27718" lon="5.8123">
        <ele>1393</ele>
        <time>2010-01-01T00:39:34Z</time>
      </trkpt>
      <trkpt lat="45.2776" lon="5.81174">
        <ele>1400</ele>
        <time>2010-01-01T00:39:57Z</time>
      </trkpt>
      <trkpt lat="45.27784" lon="5.81127">
        <ele>1404</ele>
        <time>2010-01-01T00:40:14Z</time>
      </trkpt>
      <trkpt lat="45.27798" lon="5.81084">
        <ele>1406</ele>
        <time>2010-01-01T00:40:27Z</time>
      </trkpt>
      <trkpt lat="45.27807" lon="5.81044">
        <ele>1410</ele>
        <time>2010-01-01T00:40:39Z</time>
      </trkpt>
      <trkpt lat="45.27815" lon="5.80988">
        <ele>1409</ele>
        <time>2010-01-01T00:40:55Z</time>
      </trkpt>
      <trkpt lat="45.27818" lon="5.80947">
        <ele>1403</ele>
        <time>2010-01-01T00:41:07Z</time>
      </trkpt>
      <trkpt lat="45.2783" lon="5.80915">
        <ele>1405</ele>
        <time>2010-01-01T00:41:17Z</time>
      </trkpt>
      <trkpt lat="45.27864" lon="5.80898">
        <ele>1410</ele>
        <time>2010-01-01T00:41:31Z</time>
      </trkpt>
      <trkpt lat="45.27898" lon="5.80887">
        <ele>1409</ele>
        <time>2010-01-01T00:41:45Z</time>
      </trkpt>
      <trkpt lat="45.2793" lon="5.8089">
        <ele>1410</ele>
        <time>2010-01-01T00:41:58Z</time>
      </trkpt>
      <trkpt lat="45.27959" lon="5.80889">
        <ele>1410</ele>
        <time>2010-01-01T00:42:09Z</time>
      </trkpt>
      <trkpt lat="45.27994" lon="5.80888">
        <ele>1410</ele>
        <time>2010-01-01T00:42:24Z</time>
      </trkpt>
      <trkpt lat="45.28014" lon="5.80875">
        <ele>1412</ele>
        <time>2010-01-01T00:42:32Z</time>
      </trkpt>
      <trkpt lat="45.28033" lon="5.8085">
        <ele>1413</ele>
        <time>2010-01-01T00:42:43Z</time>
      </trkpt>
      <trkpt lat="45.28054" lon="5.80838">
        <ele>1412</ele>
        <time>2010-01-01T00:42:52Z</time>
      </trkpt>
      <trkpt lat="45.28079" lon="5.80851">
        <ele>1407</ele>
        <time>2010-01-01T00:43:03Z</time>
      </trkpt>
      <trkpt lat="45.28108" lon="5.80875">
        <ele>1408</ele>
        <time>2010-01-01T00:43:16Z</time>
      </trkpt>
      <trkpt lat="45.28129" lon="5.80907">
        <ele>1422</ele>
        <time>2010-01-01T00:43:28Z</time>
      </trkpt>
      <trkpt lat="45.28148" lon="5.80943">
        <ele>1426</ele>
        <time>2010-01-01T00:43:41Z</time>
      </trkpt>
      <trkpt lat="45.28163" lon="5.80905">
        <ele>1422</ele>
        <time>2010-01-01T00:43:53Z</time>
      </trkpt>
      <trkpt lat="45.28177" lon="5.80857">
        <ele>1413</ele>
        <time>2010-01-01T00:44:08Z</time>
      </trkpt>
      <trkpt lat="45.28191" lon="5.80808">
        <ele>1415</ele>
        <time>2010-01-01T00:44:23Z</time>
      </trkpt>
      <trkpt lat="45.28214" lon="5.8076">
        <ele>1414</ele>
        <time>2010-01-01T00:44:39Z</time>
      </trkpt>
      <trkpt lat="45.28232" lon="5.80721">
        <ele>1414</ele>
        <time>2010-01-01T00:44:52Z</time>
      </trkpt>
      <trkpt lat="45.2823" lon="5.80695">
        <ele>1409</ele>
        <time>2010-01-01T00:45:00Z</time>
      </trkpt>
      <trkpt lat="45.28237" lon="5.80668">
        <ele>1406</ele>
        <time>2010-01-01T00:45:08Z</time>
      </trkpt>
      <trkpt lat="45.28252" lon="5.80641">
        <ele>1405</ele>
        <time>2010-01-01T00:45:17Z</time>
      </trkpt>
      <trkpt lat="45.28263" lon="5.80604">
        <ele>1409</ele>
        <time>2010-01-01T00:45:29Z</time>
      </trkpt>
      <trkpt lat="45.28276" lon="5.80591">
        <ele>1412</ele>
        <time>2010-01-01T00:45:35Z</time>
      </trkpt>
      <trkpt lat="45.28277" lon="5.8057">
        <ele>1413</ele>
        <time>2010-01-01T00:45:41Z</time>
      </trkpt>
      <trkpt lat="45.28296" lon="5.80556">
        <ele>1406</ele>
        <time>2010-01-01T00:45:49Z</time>
      </trkpt>
      <trkpt lat="45.28323" lon="5.80488">
        <ele>1404</ele>
        <time>2010-01-01T00:46:11Z</time>
      </trkpt>
      <trkpt lat="45.28344" lon="5.80454">
        <ele>1398</ele>
        <time>2010-01-01T00:46:24Z</time>
      </trkpt>
      <trkpt lat="45.28342" lon="5.80444">
        <ele>1397</ele>
        <time>2010-01-01T00:46:27Z</time>
      </trkpt>
      <trkpt lat="45.28364" lon="5.80426">
        <ele>1388</ele>
        <time>2010-01-01T00:46:37Z</time>
      </trkpt>
      <trkpt lat="45.28366" lon="5.80406">
        <ele>1384</ele>
        <time>2010-01-01T00:46:43Z</time>
      </trkpt>
      <trkpt lat="45.28361" lon="5.80382">
        <ele>1381</ele>
        <time>2010-01-01T00:46:50Z</time>
      </trkpt>
      <trkpt lat="45.28373" lon="5.80366">
        <ele>1381</ele>
        <time>2010-01-01T00:46:57Z</time>
      </trkpt>
      <trkpt lat="45.28384" lon="5.80386">
        <ele>1379</ele>
        <time>2010-01-01T00:47:04Z</time>
      </trkpt>
      <trkpt lat="45.28393" lon="5.80368">
        <ele>1380</ele>
        <time>2010-01-01T00:47:10Z</time>
      </trkpt>
      <trkpt lat="45.28395" lon="5.80339">
        <ele>1383</ele>
        <time>2010-01-01T00:47:18Z</time>
      </trkpt>
      <trkpt lat="45.2842" lon="5.80303">
        <ele>1387</ele>
        <time>2010-01-01T00:47:32Z</time>
      </trkpt>
      <trkpt lat="45.28446" lon="5.80266">
        <ele>1389</ele>
        <time>2010-01-01T00:47:47Z</time>
      </trkpt>
      <trkpt lat="45.28456" lon="5.80247">
        <ele>1386</ele>
        <time>2010-01-01T00:47:54Z</time>
      </trkpt>
      <trkpt lat="45.28464" lon="5.80196">
        <ele>1381</ele>
        <time>2010-01-01T00:48:08Z</time>
      </trkpt>
      <trkpt lat="45.28468" lon="5.80154">
        <ele>1382</ele>
        <time>2010-01-01T00:48:20Z</time>
      </trkpt>
      <trkpt lat="45.28472" lon="5.80097">
        <ele>1390</ele>
        <time>2010-01-01T00:48:36Z</time>
      </trkpt>
      <trkpt lat="45.28459" lon="5.80053">
        <ele>1393</ele>
        <time>2010-01-01T00:48:50Z</time>
      </trkpt>
      <trkpt lat="45.2846" lon="5.80009">
        <ele>1399</ele>
        <time>2010-01-01T00:49:02Z</time>
      </trkpt>
      <trkpt lat="45.28449" lon="5.79974">
        <ele>1412</ele>
        <time>2010-01-01T00:49:13Z</time>
      </trkpt>
      <trkpt lat="45.28443" lon="5.79937">
        <ele>1418</ele>
        <time>2010-01-01T00:49:24Z</time>
      </trkpt>
      <trkpt lat="45.28434" lon="5.79898">
        <ele>1430</ele>
        <time>2010-01-01T00:49:36Z</time>
      </trkpt>
      <trkpt lat="45.28427" lon="5.79874">
        <ele>1438</ele>
        <time>2010-01-01T00:49:43Z</time>
      </trkpt>
      <trkpt lat="45.28434" lon="5.79842">
        <ele>1448</ele>
        <time>2010-01-01T00:49:52Z</time>
      </trkpt>
      <trkpt lat="45.28441" lon="5.79812">
        <ele>1458</ele>
        <time>2010-01-01T00:50:01Z</time>
      </trkpt>
      <trkpt lat="45.28427" lon="5.79785">
        <ele>1471</ele>
        <time>2010-01-01T00:50:11Z</time>
      </trkpt>
      <trkpt lat="45.28409" lon="5.79767">
        <ele>1476</ele>
        <time>2010-01-01T00:50:20Z</time>
      </trkpt>
      <trkpt lat="45.28399" lon="5.79753">
        <ele>1477</ele>
        <time>2010-01-01T00:50:25Z</time>
      </trkpt>
      <trkpt lat="45.28403" lon="5.79737">
        <ele>1482</ele>
        <time>2010-01-01T00:50:30Z</time>
      </trkpt>
      <trkpt lat="45.28423" lon="5.79728">
        <ele>1487</ele>
        <time>2010-01-01T00:50:38Z</time>
      </trkpt>
      <trkpt lat="45.2845" lon="5.79723">
        <ele>1490</ele>
        <time>2010-01-01T00:50:49Z</time>
      </trkpt>
      <trkpt lat="45.28449" lon="5.79707">
        <ele>1495</ele>
        <time>2010-01-01T00:50:54Z</time>
      </trkpt>
      <trkpt lat="45.28429" lon="5.79696">
        <ele>1497</ele>
        <time>2010-01-01T00:51:02Z</time>
      </trkpt>
      <trkpt lat="45.28446" lon="5.7967">
        <ele>1504</ele>
        <time>2010-01-01T00:51:12Z</time>
      </trkpt>
      <trkpt lat="45.28435" lon="5.79646">
        <ele>1509</ele>
        <time>2010-01-01T00:51:20Z</time>
      </trkpt>
      <trkpt lat="45.28421" lon="5.79609">
        <ele>1513</ele>
        <time>2010-01-01T00:51:32Z</time>
      </trkpt>
      <trkpt lat="45.28419" lon="5.79573">
        <ele>1518</ele>
        <time>2010-01-01T00:51:42Z</time>
      </trkpt>
      <trkpt lat="45.28416" lon="5.79549">
        <ele>1525</ele>
        <time>2010-01-01T00:51:49Z</time>
      </trkpt>
      <trkpt lat="45.28412" lon="5.79528">
        <ele>1531</ele>
        <time>2010-01-01T00:51:55Z</time>
      </trkpt>
      <trkpt lat="45.28407" lon="5.79507">
        <ele>1536</ele>
        <time>2010-01-01T00:52:01Z</time>
      </trkpt>
      <trkpt lat="45.28408" lon="5.79473">
        <ele>1544</ele>
        <time>2010-01-01T00:52:11Z</time>
      </trkpt>
      <trkpt lat="45.28409" lon="5.79438">
        <ele>1555</ele>
        <time>2010-01-01T00:52:21Z</time>
      </trkpt>
      <trkpt lat="45.28397" lon="5.7941">
        <ele>1566</ele>
        <time>2010-01-01T00:52:30Z</time>
      </trkpt>
      <trkpt lat="45.28379" lon="5.79396">
        <ele>1570</ele>
        <time>2010-01-01T00:52:39Z</time>
      </trkpt>
      <trkpt lat="45.28357" lon="5.79382">
        <ele>1576</ele>
        <time>2010-01-01T00:52:48Z</time>
      </trkpt>
      <trkpt lat="45.28341" lon="5.79403">
        <ele>1571</ele>
        <time>2010-01-01T00:52:57Z</time>
      </trkpt>
      <trkpt lat="45.28319" lon="5.79405">
        <ele>1574</ele>
        <time>2010-01-01T00:53:06Z</time>
      </trkpt>
      <trkpt lat="45.28293" lon="5.79383">
        <ele>1582</ele>
        <time>2010-01-01T00:53:18Z</time>
      </trkpt>
      <trkpt lat="45.28275" lon="5.79365">
        <ele>1586</ele>
        <time>2010-01-01T00:53:27Z</time>
      </trkpt>
      <trkpt lat="45.28249" lon="5.79343">
        <ele>1589</ele>
        <time>2010-01-01T00:53:38Z</time>
      </trkpt>
      <trkpt lat="45.28228" lon="5.79321">
        <ele>1593</ele>
        <time>2010-01-01T00:53:49Z</time>
      </trkpt>
      <trkpt lat="45.28207" lon="5.79305">
        <ele>1593</ele>
        <time>2010-01-01T00:53:59Z</time>
      </trkpt>
      <trkpt lat="45.28188" lon="5.79285">
        <ele>1593</ele>
        <time>2010-01-01T00:54:08Z</time>
      </trkpt>
      <trkpt lat="45.28172" lon="5.79258">
        <ele>1596</ele>
        <time>2010-01-01T00:54:18Z</time>
      </trkpt>
      <trkpt lat="45.28135" lon="5.79251">
        <ele>1593</ele>
        <time>2010-01-01T00:54:33Z</time>
      </trkpt>
      <trkpt lat="45.28114" lon="5.79238">
        <ele>1595</ele>
        <time>2010-01-01T00:54:42Z</time>
      </trkpt>
      <trkpt lat="45.2809" lon="5.79224">
        <ele>1596</ele>
        <time>2010-01-01T00:54:52Z</time>
      </trkpt>
      <trkpt lat="45.28073" lon="5.79207">
        <ele>1597</ele>
        <time>2010-01-01T00:55:01Z</time>
      </trkpt>
      <trkpt lat="45.2806" lon="5.79208">
        <ele>1592</ele>
        <time>2010-01-01T00:55:06Z</time>
      </trkpt>
      <trkpt lat="45.28031" lon="5.79182">
        <ele>1592</ele>
        <time>2010-01-01T00:55:20Z</time>
      </trkpt>
      <trkpt lat="45.28025" lon="5.79169">
        <ele>1594</ele>
        <time>2010-01-01T00:55:24Z</time>
      </trkpt>
      <trkpt lat="45.2803" lon="5.79137">
        <ele>1598</ele>
        <time>2010-01-01T00:55:33Z</time>
      </trkpt>
      <trkpt lat="45.28032" lon="5.79114">
        <ele>1599</ele>
        <time>2010-01-01T00:55:40Z</time>
      </trkpt>
      <trkpt lat="45.28043" lon="5.79079">
        <ele>1606</ele>
        <time>2010-01-01T00:55:50Z</time>
      </trkpt>
      <trkpt lat="45.28058" lon="5.79028">
        <ele>1626</ele>
        <time>2010-01-01T00:56:06Z</time>
      </trkpt>
      <trkpt lat="45.28065" lon="5.78982">
        <ele>1622</ele>
        <time>2010-01-01T00:56:19Z</time>
      </trkpt>
      <trkpt lat="45.28076" lon="5.78951">
        <ele>1624</ele>
        <time>2010-01-01T00:56:29Z</time>
      </trkpt>
      <trkpt lat="45.28098" lon="5.78892">
        <ele>1638</ele>
        <time>2010-01-01T00:56:48Z</time>
      </trkpt>
      <trkpt lat="45.28077" lon="5.7887">
        <ele>1628</ele>
        <time>2010-01-01T00:56:59Z</time>
      </trkpt>
      <trkpt lat="45.28058" lon="5.78836">
        <ele>1627</ele>
        <time>2010-01-01T00:57:11Z</time>
      </trkpt>
      <trkpt lat="45.2805" lon="5.7879">
        <ele>1635</ele>
        <time>2010-01-01T00:57:24Z</time>
      </trkpt>
      <trkpt lat="45.2805" lon="5.78753">
        <ele>1638</ele>
        <time>2010-01-01T00:57:35Z</time>
      </trkpt>
      <trkpt lat="45.28048" lon="5.78727">
        <ele>1639</ele>
        <time>2010-01-01T00:57:42Z</time>
      </trkpt>
      <trkpt lat="45.2804" lon="5.78697">
        <ele>1635</ele>
        <time>2010-01-01T00:57:51Z</time>
      </trkpt>
      <trkpt lat="45.28044" lon="5.78668">
        <ele>1638</ele>
        <time>2010-01-01T00:57:59Z</time>
      </trkpt>
      <trkpt lat="45.28025" lon="5.78609">
        <ele>1638</ele>
        <time>2010-01-01T00:58:17Z</time>
      </trkpt>
      <trkpt lat="45.2801" lon="5.78575">
        <ele>1635</ele>
        <time>2010-01-01T00:58:29Z</time>
      </trkpt>
      <trkpt lat="45.28" lon="5.78542">
        <ele>1636</ele>
        <time>2010-01-01T00:58:39Z</time>
      </trkpt>
      <trkpt lat="45.2799" lon="5.78506">
        <ele>1639</ele>
        <time>2010-01-01T00:58:50Z</time>
      </trkpt>
      <trkpt lat="45.27984" lon="5.78486">
        <ele>1641</ele>
        <time>2010-01-01T00:58:56Z</time>
      </trkpt>
      <trkpt lat="45.27985" lon="5.78462">
        <ele>1650</ele>
        <time>2010-01-01T00:59:03Z</time>
      </trkpt>
      <trkpt lat="45.27957" lon="5.78417">
        <ele>1644</ele>
        <time>2010-01-01T00:59:20Z</time>
      </trkpt>
      <trkpt lat="45.27951" lon="5.78386">
        <ele>1645</ele>
        <time>2010-01-01T00:59:29Z</time>
      </trkpt>
      <trkpt lat="45.27945" lon="5.7833">
        <ele>1651</ele>
        <time>2010-01-01T00:59:45Z</time>
      </trkpt>
      <trkpt lat="45.27939" lon="5.78292">
        <ele>1647</ele>
        <time>2010-01-01T00:59:56Z</time>
      </trkpt>
      <trkpt lat="45.27932" lon="5.7825">
        <ele>1644</ele>
        <time>2010-01-01T01:00:08Z</time>
      </trkpt>
      <trkpt lat="45.27926" lon="5.78218">
        <ele>1646</ele>
        <time>2010-01-01T01:00:17Z</time>
      </trkpt>
      <trkpt lat="45.27919" lon="5.78182">
        <ele>1650</ele>
        <time>2010-01-01T01:00:28Z</time>
      </trkpt>
      <trkpt lat="45.27903" lon="5.78161">
        <ele>1647</ele>
        <time>2010-01-01T01:00:36Z</time>
      </trkpt>
      <trkpt lat="45.27886" lon="5.7814">
        <ele>1643</ele>
        <time>2010-01-01T01:00:45Z</time>
      </trkpt>
      <trkpt lat="45.27875" lon="5.7812">
        <ele>1641</ele>
        <time>2010-01-01T01:00:52Z</time>
      </trkpt>
      <trkpt lat="45.2787" lon="5.78092">
        <ele>1639</ele>
        <time>2010-01-01T01:01:01Z</time>
      </trkpt>
      <trkpt lat="45.27872" lon="5.78068">
        <ele>1636</ele>
        <time>2010-01-01T01:01:08Z</time>
      </trkpt>
      <trkpt lat="45.27894" lon="5.78045">
        <ele>1640</ele>
        <time>2010-01-01T01:01:18Z</time>
      </trkpt>
      <trkpt lat="45.27918" lon="5.78025">
        <ele>1651</ele>
        <time>2010-01-01T01:01:30Z</time>
      </trkpt>
      <trkpt lat="45.27931" lon="5.78001">
        <ele>1654</ele>
        <time>2010-01-01T01:01:38Z</time>
      </trkpt>
      <trkpt lat="45.27939" lon="5.77972">
        <ele>1650</ele>
        <time>2010-01-01T01:01:47Z</time>
      </trkpt>
      <trkpt lat="45.27936" lon="5.77953">
        <ele>1642</ele>
        <time>2010-01-01T01:01:52Z</time>
      </trkpt>
      <trkpt lat="45.2793" lon="5.77936">
        <ele>1634</ele>
        <time>2010-01-01T01:01:58Z</time>
      </trkpt>
      <trkpt lat="45.2794" lon="5.77931">
        <ele>1639</ele>
        <time>2010-01-01T01:02:02Z</time>
      </trkpt>
      <trkpt lat="45.27951" lon="5.77916">
        <ele>1642</ele>
        <time>2010-01-01T01:02:08Z</time>
      </trkpt>
      <trkpt lat="45.27991" lon="5.77844">
        <ele>1646</ele>
        <time>2010-01-01T01:02:34Z</time>
      </trkpt>
      <trkpt lat="45.28037" lon="5.77777">
        <ele>1648</ele>
        <time>2010-01-01T01:03:00Z</time>
      </trkpt>
      <trkpt lat="45.28074" lon="5.77725">
        <ele>1645</ele>
        <time>2010-01-01T01:03:21Z</time>
      </trkpt>
      <trkpt lat="45.28111" lon="5.77679">
        <ele>1632</ele>
        <time>2010-01-01T01:03:41Z</time>
      </trkpt>
      <trkpt lat="45.28129" lon="5.77676">
        <ele>1638</ele>
        <time>2010-01-01T01:03:48Z</time>
      </trkpt>
      <trkpt lat="45.28149" lon="5.77665">
        <ele>1639</ele>
        <time>2010-01-01T01:03:57Z</time>
      </trkpt>
      <trkpt lat="45.28167" lon="5.77676">
        <ele>1647</ele>
        <time>2010-01-01T01:04:04Z</time>
      </trkpt>
      <trkpt lat="45.28192" lon="5.77691">
        <ele>1648</ele>
        <time>2010-01-01T01:04:15Z</time>
      </trkpt>
      <trkpt lat="45.28219" lon="5.77709">
        <ele>1652</ele>
        <time>2010-01-01T01:04:27Z</time>
      </trkpt>
      <trkpt lat="45.28239" lon="5.7772">
        <ele>1653</ele>
        <time>2010-01-01T01:04:36Z</time>
      </trkpt>
      <trkpt lat="45.28248" lon="5.7773">
        <ele>1658</ele>
        <time>2010-01-01T01:04:40Z</time>
      </trkpt>
      <trkpt lat="45.28285" lon="5.77727">
        <ele>1645</ele>
        <time>2010-01-01T01:04:55Z</time>
      </trkpt>
      <trkpt lat="45.28323" lon="5.77768">
        <ele>1655</ele>
        <time>2010-01-01T01:05:14Z</time>
      </trkpt>
      <trkpt lat="45.28389" lon="5.77807">
        <ele>1649</ele>
        <time>2010-01-01T01:05:43Z</time>
      </trkpt>
      <trkpt lat="45.28422" lon="5.77828">
        <ele>1645</ele>
        <time>2010-01-01T01:05:57Z</time>
      </trkpt>
      <trkpt lat="45.28436" lon="5.7785">
        <ele>1645</ele>
        <time>2010-01-01T01:06:05Z</time>
      </trkpt>
      <trkpt lat="45.28478" lon="5.77873">
        <ele>1640</ele>
        <time>2010-01-01T01:06:24Z</time>
      </trkpt>
      <trkpt lat="45.28512" lon="5.77891">
        <ele>1640</ele>
        <time>2010-01-01T01:06:38Z</time>
      </trkpt>
      <trkpt lat="45.28537" lon="5.77901">
        <ele>1637</ele>
        <time>2010-01-01T01:06:48Z</time>
      </trkpt>
      <trkpt lat="45.28557" lon="5.77918">
        <ele>1634</ele>
        <time>2010-01-01T01:06:58Z</time>
      </trkpt>
      <trkpt lat="45.2857" lon="5.77931">
        <ele>1631</ele>
        <time>2010-01-01T01:07:04Z</time>
      </trkpt>
      <trkpt lat="45.28582" lon="5.77954">
        <ele>1632</ele>
        <time>2010-01-01T01:07:12Z</time>
      </trkpt>
      <trkpt lat="45.28595" lon="5.7796">
        <ele>1631</ele>
        <time>2010-01-01T01:07:18Z</time>
      </trkpt>
      <trkpt lat="45.28609" lon="5.77951">
        <ele>1623</ele>
        <time>2010-01-01T01:07:24Z</time>
      </trkpt>
      <trkpt lat="45.28631" lon="5.77917">
        <ele>1612</ele>
        <time>2010-01-01T01:07:37Z</time>
      </trkpt>
      <trkpt lat="45.28648" lon="5.77893">
        <ele>1603</ele>
        <time>2010-01-01T01:07:46Z</time>
      </trkpt>
      <trkpt lat="45.28664" lon="5.77857">
        <ele>1588</ele>
        <time>2010-01-01T01:07:58Z</time>
      </trkpt>
      <trkpt lat="45.28678" lon="5.77849">
        <ele>1586</ele>
        <time>2010-01-01T01:08:04Z</time>
      </trkpt>
      <trkpt lat="45.2873" lon="5.77842">
        <ele>1590</ele>
        <time>2010-01-01T01:08:25Z</time>
      </trkpt>
      <trkpt lat="45.28757" lon="5.77836">
        <ele>1583</ele>
        <time>2010-01-01T01:08:36Z</time>
      </trkpt>
      <trkpt lat="45.28782" lon="5.77827">
        <ele>1578</ele>
        <time>2010-01-01T01:08:46Z</time>
      </trkpt>
      <trkpt lat="45.2881" lon="5.77811">
        <ele>1574</ele>
        <time>2010-01-01T01:08:59Z</time>
      </trkpt>
      <trkpt lat="45.28846" lon="5.77782">
        <ele>1563</ele>
        <time>2010-01-01T01:09:15Z</time>
      </trkpt>
      <trkpt lat="45.2889" lon="5.7778">
        <ele>1560</ele>
        <time>2010-01-01T01:09:33Z</time>
      </trkpt>
      <trkpt lat="45.28941" lon="5.7777">
        <ele>1550</ele>
        <time>2010-01-01T01:09:53Z</time>
      </trkpt>
      <trkpt lat="45.28994" lon="5.7777">
        <ele>1536</ele>
        <time>2010-01-01T01:10:15Z</time>
      </trkpt>
      <trkpt lat="45.29014" lon="5.77771">
        <ele>1532</ele>
        <time>2010-01-01T01:10:23Z</time>
      </trkpt>
      <trkpt lat="45.29044" lon="5.77762">
        <ele>1524</ele>
        <time>2010-01-01T01:10:35Z</time>
      </trkpt>
      <trkpt lat="45.29076" lon="5.77756">
        <ele>1516</ele>
        <time>2010-01-01T01:10:48Z</time>
      </trkpt>
      <trkpt lat="45.29096" lon="5.77761">
        <ele>1509</ele>
        <time>2010-01-01T01:10:56Z</time>
      </trkpt>
      <trkpt lat="45.29119" lon="5.77783">
        <ele>1500</ele>
        <time>2010-01-01T01:11:07Z</time>
      </trkpt>
      <trkpt lat="45.29118" lon="5.77813">
        <ele>1509</ele>
        <time>2010-01-01T01:11:16Z</time>
      </trkpt>
      <trkpt lat="45.29129" lon="5.77835">
        <ele>1508</ele>
        <time>2010-01-01T01:11:23Z</time>
      </trkpt>
      <trkpt lat="45.29157" lon="5.77859">
        <ele>1495</ele>
        <time>2010-01-01T01:11:36Z</time>
      </trkpt>
      <trkpt lat="45.2917" lon="5.77877">
        <ele>1493</ele>
        <time>2010-01-01T01:11:43Z</time>
      </trkpt>
      <trkpt lat="45.29191" lon="5.77926">
        <ele>1496</ele>
        <time>2010-01-01T01:12:00Z</time>
      </trkpt>
      <trkpt lat="45.29218" lon="5.77912">
        <ele>1476</ele>
        <time>2010-01-01T01:12:11Z</time>
      </trkpt>
      <trkpt lat="45.29238" lon="5.77936">
        <ele>1477</ele>
        <time>2010-01-01T01:12:21Z</time>
      </trkpt>
      <trkpt lat="45.29254" lon="5.77955">
        <ele>1476</ele>
        <time>2010-01-01T01:12:30Z</time>
      </trkpt>
      <trkpt lat="45.29281" lon="5.77973">
        <ele>1464</ele>
        <time>2010-01-01T01:12:42Z</time>
      </trkpt>
      <trkpt lat="45.29314" lon="5.78">
        <ele>1453</ele>
        <time>2010-01-01T01:12:57Z</time>
      </trkpt>
      <trkpt lat="45.29335" lon="5.78053">
        <ele>1453</ele>
        <time>2010-01-01T01:13:14Z</time>
      </trkpt>
      <trkpt lat="45.29372" lon="5.78077">
        <ele>1438</ele>
        <time>2010-01-01T01:13:30Z</time>
      </trkpt>
      <trkpt lat="45.2939" lon="5.78098">
        <ele>1432</ele>
        <time>2010-01-01T01:13:40Z</time>
      </trkpt>
      <trkpt lat="45.29407" lon="5.78114">
        <ele>1426</ele>
        <time>2010-01-01T01:13:48Z</time>
      </trkpt>
      <trkpt lat="45.29444" lon="5.7814">
        <ele>1408</ele>
        <time>2010-01-01T01:14:04Z</time>
      </trkpt>
      <trkpt lat="45.29447" lon="5.7811">
        <ele>1400</ele>
        <time>2010-01-01T01:14:13Z</time>
      </trkpt>
      <trkpt lat="45.29465" lon="5.78129">
        <ele>1394</ele>
        <time>2010-01-01T01:14:22Z</time>
      </trkpt>
      <trkpt lat="45.2948" lon="5.7815">
        <ele>1392</ele>
        <time>2010-01-01T01:14:30Z</time>
      </trkpt>
      <trkpt lat="45.29498" lon="5.7821">
        <ele>1387</ele>
        <time>2010-01-01T01:14:49Z</time>
      </trkpt>
      <trkpt lat="45.2951" lon="5.78192">
        <ele>1380</ele>
        <time>2010-01-01T01:14:56Z</time>
      </trkpt>
      <trkpt lat="45.29509" lon="5.78163">
        <ele>1377</ele>
        <time>2010-01-01T01:15:04Z</time>
      </trkpt>
      <trkpt lat="45.29508" lon="5.78117">
        <ele>1369</ele>
        <time>2010-01-01T01:15:17Z</time>
      </trkpt>
      <trkpt lat="45.29517" lon="5.78107">
        <ele>1363</ele>
        <time>2010-01-01T01:15:21Z</time>
      </trkpt>
      <trkpt lat="45.29542" lon="5.7814">
        <ele>1359</ele>
        <time>2010-01-01T01:15:35Z</time>
      </trkpt>
      <trkpt lat="45.29561" lon="5.78213">
        <ele>1355</ele>
        <time>2010-01-01T01:15:57Z</time>
      </trkpt>
      <trkpt lat="45.29555" lon="5.78254">
        <ele>1355</ele>
        <time>2010-01-01T01:16:09Z</time>
      </trkpt>
      <trkpt lat="45.29574" lon="5.78331">
        <ele>1340</ele>
        <time>2010-01-01T01:16:32Z</time>
      </trkpt>
      <trkpt lat="45.29619" lon="5.78378">
        <ele>1322</ele>
        <time>2010-01-01T01:16:54Z</time>
      </trkpt>
      <trkpt lat="45.29625" lon="5.78368">
        <ele>1319</ele>
        <time>2010-01-01T01:16:58Z</time>
      </trkpt>
      <trkpt lat="45.29622" lon="5.78323">
        <ele>1319</ele>
        <time>2010-01-01T01:17:11Z</time>
      </trkpt>
      <trkpt lat="45.2965" lon="5.78261">
        <ele>1310</ele>
        <time>2010-01-01T01:17:31Z</time>
      </trkpt>
      <trkpt lat="45.29702" lon="5.78227">
        <ele>1297</ele>
        <time>2010-01-01T01:17:54Z</time>
      </trkpt>
      <trkpt lat="45.29723" lon="5.78227">
        <ele>1291</ele>
        <time>2010-01-01T01:18:02Z</time>
      </trkpt>
      <trkpt lat="45.29743" lon="5.78198">
        <ele>1283</ele>
        <time>2010-01-01T01:18:14Z</time>
      </trkpt>
      <trkpt lat="45.29796" lon="5.78172">
        <ele>1259</ele>
        <time>2010-01-01T01:18:36Z</time>
      </trkpt>
      <trkpt lat="45.29823" lon="5.78156">
        <ele>1247</ele>
        <time>2010-01-01T01:18:48Z</time>
      </trkpt>
      <trkpt lat="45.29829" lon="5.78132">
        <ele>1242</ele>
        <time>2010-01-01T01:18:55Z</time>
      </trkpt>
      <trkpt lat="45.29838" lon="5.7812">
        <ele>1237</ele>
        <time>2010-01-01T01:19:00Z</time>
      </trkpt>
      <trkpt lat="45.29853" lon="5.7811">
        <ele>1231</ele>
        <time>2010-01-01T01:19:07Z</time>
      </trkpt>
      <trkpt lat="45.29852" lon="5.78135">
        <ele>1235</ele>
        <time>2010-01-01T01:19:14Z</time>
      </trkpt>
      <trkpt lat="45.29864" lon="5.78159">
        <ele>1232</ele>
        <time>2010-01-01T01:19:22Z</time>
      </trkpt>
      <trkpt lat="45.29869" lon="5.7818">
        <ele>1230</ele>
        <time>2010-01-01T01:19:28Z</time>
      </trkpt>
      <trkpt lat="45.29899" lon="5.7818">
        <ele>1218</ele>
        <time>2010-01-01T01:19:40Z</time>
      </trkpt>
      <trkpt lat="45.29893" lon="5.78163">
        <ele>1222</ele>
        <time>2010-01-01T01:19:46Z</time>
      </trkpt>
      <trkpt lat="45.299" lon="5.78137">
        <ele>1221</ele>
        <time>2010-01-01T01:19:54Z</time>
      </trkpt>
      <trkpt lat="45.29924" lon="5.7812">
        <ele>1216</ele>
        <time>2010-01-01T01:20:04Z</time>
      </trkpt>
      <trkpt lat="45.2995" lon="5.78103">
        <ele>1210</ele>
        <time>2010-01-01T01:20:16Z</time>
      </trkpt>
      <trkpt lat="45.29984" lon="5.78102">
        <ele>1196</ele>
        <time>2010-01-01T01:20:29Z</time>
      </trkpt>
      <trkpt lat="45.29986" lon="5.78087">
        <ele>1191</ele>
        <time>2010-01-01T01:20:34Z</time>
      </trkpt>
      <trkpt lat="45.30004" lon="5.78091">
        <ele>1184</ele>
        <time>2010-01-01T01:20:41Z</time>
      </trkpt>
      <trkpt lat="45.29994" lon="5.78073">
        <ele>1183</ele>
        <time>2010-01-01T01:20:47Z</time>
      </trkpt>
      <trkpt lat="45.29979" lon="5.78058">
        <ele>1184</ele>
        <time>2010-01-01T01:20:54Z</time>
      </trkpt>
      <trkpt lat="45.29966" lon="5.78042">
        <ele>1182</ele>
        <time>2010-01-01T01:21:01Z</time>
      </trkpt>
      <trkpt lat="45.29937" lon="5.77984">
        <ele>1170</ele>
        <time>2010-01-01T01:21:21Z</time>
      </trkpt>
      <trkpt lat="45.29905" lon="5.77951">
        <ele>1167</ele>
        <time>2010-01-01T01:21:37Z</time>
      </trkpt>
      <trkpt lat="45.29889" lon="5.77944">
        <ele>1170</ele>
        <time>2010-01-01T01:21:44Z</time>
      </trkpt>
      <trkpt lat="45.29862" lon="5.77931">
        <ele>1172</ele>
        <time>2010-01-01T01:21:55Z</time>
      </trkpt>
      <trkpt lat="45.29852" lon="5.77926">
        <ele>1172</ele>
        <time>2010-01-01T01:22:00Z</time>
      </trkpt>
      <trkpt lat="45.29847" lon="5.77909">
        <ele>1171</ele>
        <time>2010-01-01T01:22:05Z</time>
      </trkpt>
      <trkpt lat="45.29863" lon="5.77885">
        <ele>1166</ele>
        <time>2010-01-01T01:22:14Z</time>
      </trkpt>
      <trkpt lat="45.29868" lon="5.77832">
        <ele>1169</ele>
        <time>2010-01-01T01:22:29Z</time>
      </trkpt>
      <trkpt lat="45.29875" lon="5.77796">
        <ele>1170</ele>
        <time>2010-01-01T01:22:40Z</time>
      </trkpt>
      <trkpt lat="45.2987" lon="5.77746">
        <ele>1181</ele>
        <time>2010-01-01T01:22:54Z</time>
      </trkpt>
      <trkpt lat="45.29876" lon="5.77726">
        <ele>1185</ele>
        <time>2010-01-01T01:23:00Z</time>
      </trkpt>
      <trkpt lat="45.29932" lon="5.77695">
        <ele>1193</ele>
        <time>2010-01-01T01:23:24Z</time>
      </trkpt>
      <trkpt lat="45.2999" lon="5.77687">
        <ele>1194</ele>
        <time>2010-01-01T01:23:47Z</time>
      </trkpt>
      <trkpt lat="45.30027" lon="5.77683">
        <ele>1194</ele>
        <time>2010-01-01T01:24:02Z</time>
      </trkpt>
      <trkpt lat="45.30062" lon="5.77677">
        <ele>1197</ele>
        <time>2010-01-01T01:24:16Z</time>
      </trkpt>
      <trkpt lat="45.30102" lon="5.77676">
        <ele>1205</ele>
        <time>2010-01-01T01:24:32Z</time>
      </trkpt>
      <trkpt lat="45.30137" lon="5.77676">
        <ele>1205</ele>
        <time>2010-01-01T01:24:46Z</time>
      </trkpt>
      <trkpt lat="45.30152" lon="5.77666">
        <ele>1206</ele>
        <time>2010-01-01T01:24:53Z</time>
      </trkpt>
      <trkpt lat="45.30158" lon="5.77652">
        <ele>1208</ele>
        <time>2010-01-01T01:24:57Z</time>
      </trkpt>
      <trkpt lat="45.30143" lon="5.77632">
        <ele>1211</ele>
        <time>2010-01-01T01:25:06Z</time>
      </trkpt>
      <trkpt lat="45.30127" lon="5.77613">
        <ele>1215</ele>
        <time>2010-01-01T01:25:14Z</time>
      </trkpt>
      <trkpt lat="45.30111" lon="5.77599">
        <ele>1216</ele>
        <time>2010-01-01T01:25:21Z</time>
      </trkpt>
      <trkpt lat="45.30103" lon="5.77585">
        <ele>1218</ele>
        <time>2010-01-01T01:25:27Z</time>
      </trkpt>
      <trkpt lat="45.30093" lon="5.7755">
        <ele>1217</ele>
        <time>2010-01-01T01:25:37Z</time>
      </trkpt>
      <trkpt lat="45.30078" lon="5.77529">
        <ele>1217</ele>
        <time>2010-01-01T01:25:45Z</time>
      </trkpt>
      <trkpt lat="45.30057" lon="5.77512">
        <ele>1220</ele>
        <time>2010-01-01T01:25:55Z</time>
      </trkpt>
      <trkpt lat="45.30043" lon="5.77499">
        <ele>1223</ele>
        <time>2010-01-01T01:26:02Z</time>
      </trkpt>
      <trkpt lat="45.3003" lon="5.77485">
        <ele>1225</ele>
        <time>2010-01-01T01:26:08Z</time>
      </trkpt>
      <trkpt lat="45.30028" lon="5.77465">
        <ele>1225</ele>
        <time>2010-01-01T01:26:14Z</time>
      </trkpt>
      <trkpt lat="45.30055" lon="5.77435">
        <ele>1217</ele>
        <time>2010-01-01T01:26:28Z</time>
      </trkpt>
      <trkpt lat="45.30052" lon="5.77424">
        <ele>1217</ele>
        <time>2010-01-01T01:26:31Z</time>
      </trkpt>
      <trkpt lat="45.30025" lon="5.77409">
        <ele>1220</ele>
        <time>2010-01-01T01:26:43Z</time>
      </trkpt>
      <trkpt lat="45.30007" lon="5.77397">
        <ele>1223</ele>
        <time>2010-01-01T01:26:51Z</time>
      </trkpt>
      <trkpt lat="45.29988" lon="5.77381">
        <ele>1223</ele>
        <time>2010-01-01T01:27:00Z</time>
      </trkpt>
      <trkpt lat="45.29984" lon="5.77359">
        <ele>1221</ele>
        <time>2010-01-01T01:27:06Z</time>
      </trkpt>
      <trkpt lat="45.29995" lon="5.77343">
        <ele>1221</ele>
        <time>2010-01-01T01:27:12Z</time>
      </trkpt>
      <trkpt lat="45.30026" lon="5.77324">
        <ele>1223</ele>
        <time>2010-01-01T01:27:26Z</time>
      </trkpt>
      <trkpt lat="45.30071" lon="5.77332">
        <ele>1216</ele>
        <time>2010-01-01T01:27:44Z</time>
      </trkpt>
      <trkpt lat="45.30125" lon="5.77315">
        <ele>1216</ele>
        <time>2010-01-01T01:28:06Z</time>
      </trkpt>
      <trkpt lat="45.30188" lon="5.77304">
        <ele>1215</ele>
        <time>2010-01-01T01:28:31Z</time>
      </trkpt>
      <trkpt lat="45.30247" lon="5.773">
        <ele>1214</ele>
        <time>2010-01-01T01:28:55Z</time>
      </trkpt>
      <trkpt lat="45.30275" lon="5.7727">
        <ele>1220</ele>
        <time>2010-01-01T01:29:09Z</time>
      </trkpt>
      <trkpt lat="45.30314" lon="5.77215">
        <ele>1222</ele>
        <time>2010-01-01T01:29:31Z</time>
      </trkpt>
      <trkpt lat="45.30343" lon="5.77235">
        <ele>1219</ele>
        <time>2010-01-01T01:29:44Z</time>
      </trkpt>
      <trkpt lat="45.3042" lon="5.77237">
        <ele>1214</ele>
        <time>2010-01-01T01:30:15Z</time>
      </trkpt>
      <trkpt lat="45.30497" lon="5.77261">
        <ele>1212</ele>
        <time>2010-01-01T01:30:46Z</time>
      </trkpt>
      <trkpt lat="45.30542" lon="5.77291">
        <ele>1211</ele>
        <time>2010-01-01T01:31:06Z</time>
      </trkpt>
      <trkpt lat="45.30615" lon="5.77312">
        <ele>1201</ele>
        <time>2010-01-01T01:31:36Z</time>
      </trkpt>
      <trkpt lat="45.30657" lon="5.77325">
        <ele>1196</ele>
        <time>2010-01-01T01:31:53Z</time>
      </trkpt>
      <trkpt lat="45.3066" lon="5.77304">
        <ele>1195</ele>
        <time>2010-01-01T01:32:00Z</time>
      </trkpt>
      <trkpt lat="45.30714" lon="5.77276">
        <ele>1186</ele>
        <time>2010-01-01T01:32:23Z</time>
      </trkpt>
      <trkpt lat="45.30761" lon="5.77267">
        <ele>1178</ele>
        <time>2010-01-01T01:32:42Z</time>
      </trkpt>
      <trkpt lat="45.3076" lon="5.77209">
        <ele>1168</ele>
        <time>2010-01-01T01:32:58Z</time>
      </trkpt>
      <trkpt lat="45.30753" lon="5.77141">
        <ele>1164</ele>
        <time>2010-01-01T01:33:17Z</time>
      </trkpt>
      <trkpt lat="45.30741" lon="5.7708">
        <ele>1162</ele>
        <time>2010-01-01T01:33:35Z</time>
      </trkpt>
      <trkpt lat="45.30716" lon="5.77005">
        <ele>1167</ele>
        <time>2010-01-01T01:33:58Z</time>
      </trkpt>
      <trkpt lat="45.30687" lon="5.76928">
        <ele>1176</ele>
        <time>2010-01-01T01:34:23Z</time>
      </trkpt>
      <trkpt lat="45.30705" lon="5.76887">
        <ele>1178</ele>
        <time>2010-01-01T01:34:37Z</time>
      </trkpt>
      <trkpt lat="45.30696" lon="5.76827">
        <ele>1178</ele>
        <time>2010-01-01T01:34:54Z</time>
      </trkpt>
      <trkpt lat="45.30681" lon="5.76787">
        <ele>1181</ele>
        <time>2010-01-01T01:35:07Z</time>
      </trkpt>
      <trkpt lat="45.30678" lon="5.76748">
        <ele>1181</ele>
        <time>2010-01-01T01:35:18Z</time>
      </trkpt>
      <trkpt lat="45.30692" lon="5.76724">
        <ele>1181</ele>
        <time>2010-01-01T01:35:26Z</time>
      </trkpt>
      <trkpt lat="45.30764" lon="5.7666">
        <ele>1184</ele>
        <time>2010-01-01T01:36:01Z</time>
      </trkpt>
      <trkpt lat="45.30796" lon="5.766">
        <ele>1201</ele>
        <time>2010-01-01T01:36:22Z</time>
      </trkpt>
      <trkpt lat="45.30797" lon="5.76555">
        <ele>1213</ele>
        <time>2010-01-01T01:36:34Z</time>
      </trkpt>
      <trkpt lat="45.30815" lon="5.76525">
        <ele>1217</ele>
        <time>2010-01-01T01:36:46Z</time>
      </trkpt>
      <trkpt lat="45.30847" lon="5.76456">
        <ele>1225</ele>
        <time>2010-01-01T01:37:09Z</time>
      </trkpt>
      <trkpt lat="45.30883" lon="5.76465">
        <ele>1227</ele>
        <time>2010-01-01T01:37:23Z</time>
      </trkpt>
      <trkpt lat="45.30913" lon="5.76471">
        <ele>1231</ele>
        <time>2010-01-01T01:37:36Z</time>
      </trkpt>
      <trkpt lat="45.30938" lon="5.76458">
        <ele>1239</ele>
        <time>2010-01-01T01:37:46Z</time>
      </trkpt>
      <trkpt lat="45.30959" lon="5.7648">
        <ele>1243</ele>
        <time>2010-01-01T01:37:56Z</time>
      </trkpt>
      <trkpt lat="45.30963" lon="5.76533">
        <ele>1234</ele>
        <time>2010-01-01T01:38:12Z</time>
      </trkpt>
      <trkpt lat="45.31058" lon="5.76664">
        <ele>1226</ele>
        <time>2010-01-01T01:39:05Z</time>
      </trkpt>
      <trkpt lat="45.31098" lon="5.76714">
        <ele>1229</ele>
        <time>2010-01-01T01:39:25Z</time>
      </trkpt>
      <trkpt lat="45.31128" lon="5.76769">
        <ele>1226</ele>
        <time>2010-01-01T01:39:45Z</time>
      </trkpt>
      <trkpt lat="45.31146" lon="5.76784">
        <ele>1226</ele>
        <time>2010-01-01T01:39:54Z</time>
      </trkpt>
      <trkpt lat="45.31181" lon="5.76795">
        <ele>1226</ele>
        <time>2010-01-01T01:40:08Z</time>
      </trkpt>
      <trkpt lat="45.31211" lon="5.7684">
        <ele>1218</ele>
        <time>2010-01-01T01:40:25Z</time>
      </trkpt>
      <trkpt lat="45.31232" lon="5.76857">
        <ele>1215</ele>
        <time>2010-01-01T01:40:35Z</time>
      </trkpt>
      <trkpt lat="45.31319" lon="5.76898">
        <ele>1220</ele>
        <time>2010-01-01T01:41:12Z</time>
      </trkpt>
      <trkpt lat="45.31337" lon="5.7687">
        <ele>1231</ele>
        <time>2010-01-01T01:41:23Z</time>
      </trkpt>
      <trkpt lat="45.31365" lon="5.76819">
        <ele>1250</ele>
        <time>2010-01-01T01:41:41Z</time>
      </trkpt>
      <trkpt lat="45.31381" lon="5.76784">
        <ele>1260</ele>
        <time>2010-01-01T01:41:53Z</time>
      </trkpt>
      <trkpt lat="45.31393" lon="5.76748">
        <ele>1272</ele>
        <time>2010-01-01T01:42:04Z</time>
      </trkpt>
      <trkpt lat="45.31419" lon="5.76761">
        <ele>1276</ele>
        <time>2010-01-01T01:42:15Z</time>
      </trkpt>
      <trkpt lat="45.31445" lon="5.76716">
        <ele>1296</ele>
        <time>2010-01-01T01:42:31Z</time>
      </trkpt>
      <trkpt lat="45.31488" lon="5.76705">
        <ele>1306</ele>
        <time>2010-01-01T01:42:49Z</time>
      </trkpt>
      <trkpt lat="45.31549" lon="5.76699">
        <ele>1328</ele>
        <time>2010-01-01T01:43:13Z</time>
      </trkpt>
      <trkpt lat="45.3158" lon="5.76714">
        <ele>1338</ele>
        <time>2010-01-01T01:43:26Z</time>
      </trkpt>
      <trkpt lat="45.31588" lon="5.76677">
        <ele>1347</ele>
        <time>2010-01-01T01:43:37Z</time>
      </trkpt>
      <trkpt lat="45.31614" lon="5.76688">
        <ele>1349</ele>
        <time>2010-01-01T01:43:48Z</time>
      </trkpt>
      <trkpt lat="45.31591" lon="5.76623">
        <ele>1369</ele>
        <time>2010-01-01T01:44:08Z</time>
      </trkpt>
      <trkpt lat="45.31568" lon="5.76568">
        <ele>1377</ele>
        <time>2010-01-01T01:44:26Z</time>
      </trkpt>
      <trkpt lat="45.3154" lon="5.7651">
        <ele>1388</ele>
        <time>2010-01-01T01:44:46Z</time>
      </trkpt>
      <trkpt lat="45.31511" lon="5.76456">
        <ele>1400</ele>
        <time>2010-01-01T01:45:05Z</time>
      </trkpt>
      <trkpt lat="45.31466" lon="5.76407">
        <ele>1407</ele>
        <time>2010-01-01T01:45:28Z</time>
      </trkpt>
      <trkpt lat="45.31431" lon="5.76357">
        <ele>1421</ele>
        <time>2010-01-01T01:45:48Z</time>
      </trkpt>
      <trkpt lat="45.31395" lon="5.7631">
        <ele>1435</ele>
        <time>2010-01-01T01:46:07Z</time>
      </trkpt>
      <trkpt lat="45.31351" lon="5.76259">
        <ele>1454</ele>
        <time>2010-01-01T01:46:30Z</time>
      </trkpt>
      <trkpt lat="45.31313" lon="5.76218">
        <ele>1462</ele>
        <time>2010-01-01T01:46:49Z</time>
      </trkpt>
      <trkpt lat="45.31283" lon="5.76186">
        <ele>1465</ele>
        <time>2010-01-01T01:47:04Z</time>
      </trkpt>
      <trkpt lat="45.31264" lon="5.76115">
        <ele>1484</ele>
        <time>2010-01-01T01:47:26Z</time>
      </trkpt>
      <trkpt lat="45.31254" lon="5.76046">
        <ele>1496</ele>
        <time>2010-01-01T01:47:45Z</time>
      </trkpt>
      <trkpt lat="45.31244" lon="5.75978">
        <ele>1511</ele>
        <time>2010-01-01T01:48:05Z</time>
      </trkpt>
      <trkpt lat="45.31239" lon="5.75926">
        <ele>1530</ele>
        <time>2010-01-01T01:48:20Z</time>
      </trkpt>
      <trkpt lat="45.31241" lon="5.7586">
        <ele>1547</ele>
        <time>2010-01-01T01:48:38Z</time>
      </trkpt>
      <trkpt lat="45.31223" lon="5.75832">
        <ele>1545</ele>
        <time>2010-01-01T01:48:49Z</time>
      </trkpt>
      <trkpt lat="45.31218" lon="5.75799">
        <ele>1551</ele>
        <time>2010-01-01T01:48:58Z</time>
      </trkpt>
      <trkpt lat="45.31226" lon="5.75759">
        <ele>1569</ele>
        <time>2010-01-01T01:49:10Z</time>
      </trkpt>
      <trkpt lat="45.31251" lon="5.75696">
        <ele>1592</ele>
        <time>2010-01-01T01:49:30Z</time>
      </trkpt>
      <trkpt lat="45.31232" lon="5.7566">
        <ele>1607</ele>
        <time>2010-01-01T01:49:43Z</time>
      </trkpt>
      <trkpt lat="45.31197" lon="5.7563">
        <ele>1617</ele>
        <time>2010-01-01T01:50:00Z</time>
      </trkpt>
      <trkpt lat="45.3117" lon="5.75624">
        <ele>1617</ele>
        <time>2010-01-01T01:50:11Z</time>
      </trkpt>
      <trkpt lat="45.31155" lon="5.75585">
        <ele>1624</ele>
        <time>2010-01-01T01:50:23Z</time>
      </trkpt>
      <trkpt lat="45.3119" lon="5.75581">
        <ele>1629</ele>
        <time>2010-01-01T01:50:37Z</time>
      </trkpt>
      <trkpt lat="45.31214" lon="5.75566">
        <ele>1631</ele>
        <time>2010-01-01T01:50:48Z</time>
      </trkpt>
      <trkpt lat="45.31191" lon="5.75542">
        <ele>1637</ele>
        <time>2010-01-01T01:50:59Z</time>
      </trkpt>
      <trkpt lat="45.31162" lon="5.75508">
        <ele>1638</ele>
        <time>2010-01-01T01:51:14Z</time>
      </trkpt>
      <trkpt lat="45.31147" lon="5.75493">
        <ele>1641</ele>
        <time>2010-01-01T01:51:21Z</time>
      </trkpt>
      <trkpt lat="45.31131" lon="5.75501">
        <ele>1641</ele>
        <time>2010-01-01T01:51:28Z</time>
      </trkpt>
      <trkpt lat="45.31119" lon="5.75475">
        <ele>1642</ele>
        <time>2010-01-01T01:51:37Z</time>
      </trkpt>
      <trkpt lat="45.31095" lon="5.75445">
        <ele>1639</ele>
        <time>2010-01-01T01:51:50Z</time>
      </trkpt>
      <trkpt lat="45.31054" lon="5.75409">
        <ele>1635</ele>
        <time>2010-01-01T01:52:09Z</time>
      </trkpt>
      <trkpt lat="45.31016" lon="5.75385">
        <ele>1631</ele>
        <time>2010-01-01T01:52:26Z</time>
      </trkpt>
      <trkpt lat="45.3098" lon="5.75357">
        <ele>1632</ele>
        <time>2010-01-01T01:52:42Z</time>
      </trkpt>
      <trkpt lat="45.3095" lon="5.75312">
        <ele>1633</ele>
        <time>2010-01-01T01:53:00Z</time>
      </trkpt>
      <trkpt lat="45.30918" lon="5.75278">
        <ele>1634</ele>
        <time>2010-01-01T01:53:16Z</time>
      </trkpt>
      <trkpt lat="45.30885" lon="5.75216">
        <ele>1639</ele>
        <time>2010-01-01T01:53:38Z</time>
      </trkpt>
      <trkpt lat="45.30867" lon="5.75169">
        <ele>1639</ele>
        <time>2010-01-01T01:53:53Z</time>
      </trkpt>
      <trkpt lat="45.30846" lon="5.75109">
        <ele>1661</ele>
        <time>2010-01-01T01:54:12Z</time>
      </trkpt>
      <trkpt lat="45.3083" lon="5.75066">
        <ele>1670</ele>
        <time>2010-01-01T01:54:25Z</time>
      </trkpt>
      <trkpt lat="45.30809" lon="5.75036">
        <ele>1676</ele>
        <time>2010-01-01T01:54:37Z</time>
      </trkpt>
      <trkpt lat="45.30796" lon="5.75003">
        <ele>1680</ele>
        <time>2010-01-01T01:54:48Z</time>
      </trkpt>
      <trkpt lat="45.30796" lon="5.74956">
        <ele>1682</ele>
        <time>2010-01-01T01:55:01Z</time>
      </trkpt>
      <trkpt lat="45.30779" lon="5.74924">
        <ele>1692</ele>
        <time>2010-01-01T01:55:12Z</time>
      </trkpt>
      <trkpt lat="45.3076" lon="5.74898">
        <ele>1695</ele>
        <time>2010-01-01T01:55:23Z</time>
      </trkpt>
      <trkpt lat="45.30731" lon="5.74857">
        <ele>1694</ele>
        <time>2010-01-01T01:55:39Z</time>
      </trkpt>
      <trkpt lat="45.30708" lon="5.7481">
        <ele>1688</ele>
        <time>2010-01-01T01:55:55Z</time>
      </trkpt>
      <trkpt lat="45.30683" lon="5.74772">
        <ele>1688</ele>
        <time>2010-01-01T01:56:10Z</time>
      </trkpt>
      <trkpt lat="45.30646" lon="5.74748">
        <ele>1685</ele>
        <time>2010-01-01T01:56:26Z</time>
      </trkpt>
      <trkpt lat="45.30613" lon="5.74724">
        <ele>1683</ele>
        <time>2010-01-01T01:56:41Z</time>
      </trkpt>
      <trkpt lat="45.30571" lon="5.74692">
        <ele>1674</ele>
        <time>2010-01-01T01:57:00Z</time>
      </trkpt>
      <trkpt lat="45.3053" lon="5.74669">
        <ele>1662</ele>
        <time>2010-01-01T01:57:18Z</time>
      </trkpt>
      <trkpt lat="45.30491" lon="5.74651">
        <ele>1656</ele>
        <time>2010-01-01T01:57:34Z</time>
      </trkpt>
      <trkpt lat="45.30424" lon="5.7463">
        <ele>1650</ele>
        <time>2010-01-01T01:58:01Z</time>
      </trkpt>
      <trkpt lat="45.30369" lon="5.74609">
        <ele>1645</ele>
        <time>2010-01-01T01:58:25Z</time>
      </trkpt>
      <trkpt lat="45.30338" lon="5.74594">
        <ele>1643</ele>
        <time>2010-01-01T01:58:37Z</time>
      </trkpt>
      <trkpt lat="45.30301" lon="5.74574">
        <ele>1639</ele>
        <time>2010-01-01T01:58:53Z</time>
      </trkpt>
      <trkpt lat="45.30278" lon="5.74557">
        <ele>1638</ele>
        <time>2010-01-01T01:59:04Z</time>
      </trkpt>
      <trkpt lat="45.30227" lon="5.74523">
        <ele>1627</ele>
        <time>2010-01-01T01:59:26Z</time>
      </trkpt>
      <trkpt lat="45.30195" lon="5.74497">
        <ele>1621</ele>
        <time>2010-01-01T01:59:41Z</time>
      </trkpt>
      <trkpt lat="45.30138" lon="5.74461">
        <ele>1624</ele>
        <time>2010-01-01T02:00:06Z</time>
      </trkpt>
      <trkpt lat="45.30095" lon="5.74439">
        <ele>1615</ele>
        <time>2010-01-01T02:00:24Z</time>
      </trkpt>
      <trkpt lat="45.30053" lon="5.74418">
        <ele>1615</ele>
        <time>2010-01-01T02:00:42Z</time>
      </trkpt>
      <trkpt lat="45.30003" lon="5.74394">
        <ele>1629</ele>
        <time>2010-01-01T02:01:03Z</time>
      </trkpt>
      <trkpt lat="45.29964" lon="5.7436">
        <ele>1631</ele>
        <time>2010-01-01T02:01:22Z</time>
      </trkpt>
      <trkpt lat="45.2994" lon="5.74362">
        <ele>1631</ele>
        <time>2010-01-01T02:01:31Z</time>
      </trkpt>
      <trkpt lat="45.29892" lon="5.74334">
        <ele>1643</ele>
        <time>2010-01-01T02:01:52Z</time>
      </trkpt>
      <trkpt lat="45.29837" lon="5.74274">
        <ele>1653</ele>
        <time>2010-01-01T02:02:20Z</time>
      </trkpt>
      <trkpt lat="45.29797" lon="5.74255">
        <ele>1660</ele>
        <time>2010-01-01T02:02:37Z</time>
      </trkpt>
      <trkpt lat="45.29756" lon="5.74282">
        <ele>1663</ele>
        <time>2010-01-01T02:02:55Z</time>
      </trkpt>
      <trkpt lat="45.29745" lon="5.74312">
        <ele>1664</ele>
        <time>2010-01-01T02:03:04Z</time>
      </trkpt>
      <trkpt lat="45.29703" lon="5.74362">
        <ele>1663</ele>
        <time>2010-01-01T02:03:26Z</time>
      </trkpt>
      <trkpt lat="45.29644" lon="5.74398">
        <ele>1656</ele>
        <time>2010-01-01T02:03:52Z</time>
      </trkpt>
      <trkpt lat="45.29582" lon="5.7437">
        <ele>1652</ele>
        <time>2010-01-01T02:04:18Z</time>
      </trkpt>
      <trkpt lat="45.29528" lon="5.74351">
        <ele>1637</ele>
        <time>2010-01-01T02:04:40Z</time>
      </trkpt>
      <trkpt lat="45.29474" lon="5.74338">
        <ele>1624</ele>
        <time>2010-01-01T02:05:02Z</time>
      </trkpt>
      <trkpt lat="45.29433" lon="5.74332">
        <ele>1624</ele>
        <time>2010-01-01T02:05:19Z</time>
      </trkpt>
      <trkpt lat="45.29394" lon="5.74347">
        <ele>1614</ele>
        <time>2010-01-01T02:05:35Z</time>
      </trkpt>
      <trkpt lat="45.29357" lon="5.74368">
        <ele>1609</ele>
        <time>2010-01-01T02:05:51Z</time>
      </trkpt>
      <trkpt lat="45.29326" lon="5.74388">
        <ele>1613</ele>
        <time>2010-01-01T02:06:05Z</time>
      </trkpt>
      <trkpt lat="45.29288" lon="5.7442">
        <ele>1620</ele>
        <time>2010-01-01T02:06:22Z</time>
      </trkpt>
      <trkpt lat="45.29262" lon="5.74439">
        <ele>1627</ele>
        <time>2010-01-01T02:06:34Z</time>
      </trkpt>
      <trkpt lat="45.29217" lon="5.74454">
        <ele>1633</ele>
        <time>2010-01-01T02:06:53Z</time>
      </trkpt>
      <trkpt lat="45.29173" lon="5.74439">
        <ele>1634</ele>
        <time>2010-01-01T02:07:11Z</time>
      </trkpt>
      <trkpt lat="45.29146" lon="5.74403">
        <ele>1629</ele>
        <time>2010-01-01T02:07:26Z</time>
      </trkpt>
      <trkpt lat="45.29116" lon="5.74351">
        <ele>1623</ele>
        <time>2010-01-01T02:07:44Z</time>
      </trkpt>
      <trkpt lat="45.29093" lon="5.74302">
        <ele>1617</ele>
        <time>2010-01-01T02:08:01Z</time>
      </trkpt>
      <trkpt lat="45.29063" lon="5.74255">
        <ele>1617</ele>
        <time>2010-01-01T02:08:19Z</time>
      </trkpt>
      <trkpt lat="45.29033" lon="5.74209">
        <ele>1622</ele>
        <time>2010-01-01T02:08:36Z</time>
      </trkpt>
      <trkpt lat="45.29016" lon="5.74152">
        <ele>1626</ele>
        <time>2010-01-01T02:08:54Z</time>
      </trkpt>
      <trkpt lat="45.28995" lon="5.74104">
        <ele>1634</ele>
        <time>2010-01-01T02:09:10Z</time>
      </trkpt>
      <trkpt lat="45.28962" lon="5.74072">
        <ele>1650</ele>
        <time>2010-01-01T02:09:26Z</time>
      </trkpt>
      <trkpt lat="45.2892" lon="5.74059">
        <ele>1669</ele>
        <time>2010-01-01T02:09:43Z</time>
      </trkpt>
      <trkpt lat="45.28889" lon="5.74051">
        <ele>1684</ele>
        <time>2010-01-01T02:09:56Z</time>
      </trkpt>
      <trkpt lat="45.28867" lon="5.74029">
        <ele>1688</ele>
        <time>2010-01-01T02:10:06Z</time>
      </trkpt>
      <trkpt lat="45.28831" lon="5.73986">
        <ele>1702</ele>
        <time>2010-01-01T02:10:25Z</time>
      </trkpt>
      <trkpt lat="45.28811" lon="5.73958">
        <ele>1705</ele>
        <time>2010-01-01T02:10:36Z</time>
      </trkpt>
      <trkpt lat="45.2882" lon="5.73943">
        <ele>1712</ele>
        <time>2010-01-01T02:10:42Z</time>
      </trkpt>
      <trkpt lat="45.28843" lon="5.73931">
        <ele>1723</ele>
        <time>2010-01-01T02:10:52Z</time>
      </trkpt>
      <trkpt lat="45.28864" lon="5.73928">
        <ele>1716</ele>
        <time>2010-01-01T02:11:00Z</time>
      </trkpt>
      <trkpt lat="45.28855" lon="5.73896">
        <ele>1718</ele>
        <time>2010-01-01T02:11:10Z</time>
      </trkpt>
      <trkpt lat="45.28835" lon="5.7386">
        <ele>1736</ele>
        <time>2010-01-01T02:11:23Z</time>
      </trkpt>
      <trkpt lat="45.28826" lon="5.73825">
        <ele>1740</ele>
        <time>2010-01-01T02:11:33Z</time>
      </trkpt>
      <trkpt lat="45.28806" lon="5.7384">
        <ele>1731</ele>
        <time>2010-01-01T02:11:42Z</time>
      </trkpt>
      <trkpt lat="45.28788" lon="5.7383">
        <ele>1732</ele>
        <time>2010-01-01T02:11:50Z</time>
      </trkpt>
      <trkpt lat="45.28763" lon="5.7381">
        <ele>1735</ele>
        <time>2010-01-01T02:12:02Z</time>
      </trkpt>
      <trkpt lat="45.28731" lon="5.73789">
        <ele>1729</ele>
        <time>2010-01-01T02:12:16Z</time>
      </trkpt>
      <trkpt lat="45.28702" lon="5.73782">
        <ele>1720</ele>
        <time>2010-01-01T02:12:27Z</time>
      </trkpt>
      <trkpt lat="45.28672" lon="5.73748">
        <ele>1693</ele>
        <time>2010-01-01T02:12:43Z</time>
      </trkpt>
      <trkpt lat="45.28646" lon="5.73722">
        <ele>1675</ele>
        <time>2010-01-01T02:12:55Z</time>
      </trkpt>
      <trkpt lat="45.28615" lon="5.73714">
        <ele>1655</ele>
        <time>2010-01-01T02:13:08Z</time>
      </trkpt>
      <trkpt lat="45.28575" lon="5.73701">
        <ele>1634</ele>
        <time>2010-01-01T02:13:24Z</time>
      </trkpt>
      <trkpt lat="45.28562" lon="5.73679">
        <ele>1607</ele>
        <time>2010-01-01T02:13:33Z</time>
      </trkpt>
      <trkpt lat="45.28526" lon="5.73692">
        <ele>1580</ele>
        <time>2010-01-01T02:13:48Z</time>
      </trkpt>
      <trkpt lat="45.28482" lon="5.73729">
        <ele>1582</ele>
        <time>2010-01-01T02:14:08Z</time>
      </trkpt>
      <trkpt lat="45.28443" lon="5.7374">
        <ele>1554</ele>
        <time>2010-01-01T02:14:24Z</time>
      </trkpt>
      <trkpt lat="45.28405" lon="5.7374">
        <ele>1529</ele>
        <time>2010-01-01T02:14:39Z</time>
      </trkpt>
      <trkpt lat="45.28396" lon="5.73686">
        <ele>1521</ele>
        <time>2010-01-01T02:14:55Z</time>
      </trkpt>
      <trkpt lat="45.28375" lon="5.73688">
        <ele>1519</ele>
        <time>2010-01-01T02:15:03Z</time>
      </trkpt>
      <trkpt lat="45.28337" lon="5.73649">
        <ele>1506</ele>
        <time>2010-01-01T02:15:22Z</time>
      </trkpt>
      <trkpt lat="45.28293" lon="5.73587">
        <ele>1490</ele>
        <time>2010-01-01T02:15:46Z</time>
      </trkpt>
      <trkpt lat="45.28258" lon="5.73551">
        <ele>1481</ele>
        <time>2010-01-01T02:16:04Z</time>
      </trkpt>
      <trkpt lat="45.28218" lon="5.7354">
        <ele>1475</ele>
        <time>2010-01-01T02:16:20Z</time>
      </trkpt>
      <trkpt lat="45.28192" lon="5.73534">
        <ele>1465</ele>
        <time>2010-01-01T02:16:31Z</time>
      </trkpt>
      <trkpt lat="45.28168" lon="5.73516">
        <ele>1455</ele>
        <time>2010-01-01T02:16:42Z</time>
      </trkpt>
      <trkpt lat="45.2815" lon="5.73516">
        <ele>1445</ele>
        <time>2010-01-01T02:16:49Z</time>
      </trkpt>
      <trkpt lat="45.28124" lon="5.73484">
        <ele>1434</ele>
        <time>2010-01-01T02:17:02Z</time>
      </trkpt>
      <trkpt lat="45.28089" lon="5.73465">
        <ele>1425</ele>
        <time>2010-01-01T02:17:17Z</time>
      </trkpt>
      <trkpt lat="45.28056" lon="5.73433">
        <ele>1416</ele>
        <time>2010-01-01T02:17:33Z</time>
      </trkpt>
      <trkpt lat="45.28005" lon="5.73405">
        <ele>1386</ele>
        <time>2010-01-01T02:17:55Z</time>
      </trkpt>
      <trkpt lat="45.27979" lon="5.73405">
        <ele>1371</ele>
        <time>2010-01-01T02:18:06Z</time>
      </trkpt>
      <trkpt lat="45.27978" lon="5.73366">
        <ele>1370</ele>
        <time>2010-01-01T02:18:17Z</time>
      </trkpt>
      <trkpt lat="45.2795" lon="5.73355">
        <ele>1354</ele>
        <time>2010-01-01T02:18:28Z</time>
      </trkpt>
      <trkpt lat="45.27949" lon="5.73321">
        <ele>1348</ele>
        <time>2010-01-01T02:18:38Z</time>
      </trkpt>
      <trkpt lat="45.27959" lon="5.73302">
        <ele>1346</ele>
        <time>2010-01-01T02:18:45Z</time>
      </trkpt>
      <trkpt lat="45.27946" lon="5.73291">
        <ele>1335</ele>
        <time>2010-01-01T02:18:51Z</time>
      </trkpt>
      <trkpt lat="45.27953" lon="5.73267">
        <ele>1329</ele>
        <time>2010-01-01T02:18:58Z</time>
      </trkpt>
      <trkpt lat="45.27926" lon="5.73222">
        <ele>1300</ele>
        <time>2010-01-01T02:19:15Z</time>
      </trkpt>
      <trkpt lat="45.2789" lon="5.73201">
        <ele>1289</ele>
        <time>2010-01-01T02:19:30Z</time>
      </trkpt>
      <trkpt lat="45.27851" lon="5.73173">
        <ele>1277</ele>
        <time>2010-01-01T02:19:48Z</time>
      </trkpt>
      <trkpt lat="45.2781" lon="5.73164">
        <ele>1264</ele>
        <time>2010-01-01T02:20:05Z</time>
      </trkpt>
      <trkpt lat="45.2776" lon="5.73158">
        <ele>1252</ele>
        <time>2010-01-01T02:20:25Z</time>
      </trkpt>
      <trkpt lat="45.27731" lon="5.73152">
        <ele>1252</ele>
        <time>2010-01-01T02:20:36Z</time>
      </trkpt>
      <trkpt lat="45.27704" lon="5.73126">
        <ele>1254</ele>
        <time>2010-01-01T02:20:49Z</time>
      </trkpt>
      <trkpt lat="45.27662" lon="5.73109">
        <ele>1245</ele>
        <time>2010-01-01T02:21:07Z</time>
      </trkpt>
      <trkpt lat="45.27602" lon="5.73098">
        <ele>1243</ele>
        <time>2010-01-01T02:21:31Z</time>
      </trkpt>
      <trkpt lat="45.27577" lon="5.73087">
        <ele>1243</ele>
        <time>2010-01-01T02:21:41Z</time>
      </trkpt>
      <trkpt lat="45.27559" lon="5.73087">
        <ele>1244</ele>
        <time>2010-01-01T02:21:49Z</time>
      </trkpt>
      <trkpt lat="45.27534" lon="5.7307">
        <ele>1242</ele>
        <time>2010-01-01T02:22:00Z</time>
      </trkpt>
      <trkpt lat="45.27484" lon="5.73055">
        <ele>1233</ele>
        <time>2010-01-01T02:22:20Z</time>
      </trkpt>
      <trkpt lat="45.27472" lon="5.73021">
        <ele>1226</ele>
        <time>2010-01-01T02:22:31Z</time>
      </trkpt>
      <trkpt lat="45.27407" lon="5.72993">
        <ele>1217</ele>
        <time>2010-01-01T02:22:58Z</time>
      </trkpt>
      <trkpt lat="45.27374" lon="5.72984">
        <ele>1216</ele>
        <time>2010-01-01T02:23:12Z</time>
      </trkpt>
      <trkpt lat="45.27343" lon="5.72984">
        <ele>1212</ele>
        <time>2010-01-01T02:23:24Z</time>
      </trkpt>
      <trkpt lat="45.27318" lon="5.72986">
        <ele>1206</ele>
        <time>2010-01-01T02:23:34Z</time>
      </trkpt>
      <trkpt lat="45.27289" lon="5.73012">
        <ele>1201</ele>
        <time>2010-01-01T02:23:48Z</time>
      </trkpt>
      <trkpt lat="45.27226" lon="5.73001">
        <ele>1191</ele>
        <time>2010-01-01T02:24:13Z</time>
      </trkpt>
      <trkpt lat="45.27156" lon="5.73036">
        <ele>1175</ele>
        <time>2010-01-01T02:24:43Z</time>
      </trkpt>
      <trkpt lat="45.27118" lon="5.73066">
        <ele>1157</ele>
        <time>2010-01-01T02:25:00Z</time>
      </trkpt>
      <trkpt lat="45.27176" lon="5.73083">
        <ele>1163</ele>
        <time>2010-01-01T02:25:24Z</time>
      </trkpt>
      <trkpt lat="45.27235" lon="5.73092">
        <ele>1165</ele>
        <time>2010-01-01T02:25:47Z</time>
      </trkpt>
      <trkpt lat="45.27281" lon="5.73115">
        <ele>1154</ele>
        <time>2010-01-01T02:26:07Z</time>
      </trkpt>
      <trkpt lat="45.27266" lon="5.7313">
        <ele>1145</ele>
        <time>2010-01-01T02:26:15Z</time>
      </trkpt>
      <trkpt lat="45.2723" lon="5.7313">
        <ele>1143</ele>
        <time>2010-01-01T02:26:29Z</time>
      </trkpt>
      <trkpt lat="45.27155" lon="5.73173">
        <ele>1108</ele>
        <time>2010-01-01T02:27:02Z</time>
      </trkpt>
      <trkpt lat="45.27165" lon="5.73192">
        <ele>1104</ele>
        <time>2010-01-01T02:27:09Z</time>
      </trkpt>
      <trkpt lat="45.27195" lon="5.73229">
        <ele>1092</ele>
        <time>2010-01-01T02:27:24Z</time>
      </trkpt>
      <trkpt lat="45.27218" lon="5.73272">
        <ele>1073</ele>
        <time>2010-01-01T02:27:40Z</time>
      </trkpt>
      <trkpt lat="45.27271" lon="5.73255">
        <ele>1058</ele>
        <time>2010-01-01T02:28:01Z</time>
      </trkpt>
      <trkpt lat="45.27325" lon="5.73276">
        <ele>1048</ele>
        <time>2010-01-01T02:28:24Z</time>
      </trkpt>
      <trkpt lat="45.27377" lon="5.73332">
        <ele>1026</ele>
        <time>2010-01-01T02:28:50Z</time>
      </trkpt>
      <trkpt lat="45.27423" lon="5.73364">
        <ele>1022</ele>
        <time>2010-01-01T02:29:11Z</time>
      </trkpt>
      <trkpt lat="45.27469" lon="5.73396">
        <ele>1016</ele>
        <time>2010-01-01T02:29:31Z</time>
      </trkpt>
      <trkpt lat="45.27517" lon="5.73446">
        <ele>1004</ele>
        <time>2010-01-01T02:29:55Z</time>
      </trkpt>
      <trkpt lat="45.27558" lon="5.73493">
        <ele>1000</ele>
        <time>2010-01-01T02:30:16Z</time>
      </trkpt>
      <trkpt lat="45.27582" lon="5.73542">
        <ele>998</ele>
        <time>2010-01-01T02:30:33Z</time>
      </trkpt>
      <trkpt lat="45.27591" lon="5.73615">
        <ele>994</ele>
        <time>2010-01-01T02:30:53Z</time>
      </trkpt>
      <trkpt lat="45.27612" lon="5.73658">
        <ele>992</ele>
        <time>2010-01-01T02:31:08Z</time>
      </trkpt>
      <trkpt lat="45.27621" lon="5.73725">
        <ele>989</ele>
        <time>2010-01-01T02:31:27Z</time>
      </trkpt>
      <trkpt lat="45.27645" lon="5.73752">
        <ele>993</ele>
        <time>2010-01-01T02:31:40Z</time>
      </trkpt>
      <trkpt lat="45.27674" lon="5.73849">
        <ele>987</ele>
        <time>2010-01-01T02:32:09Z</time>
      </trkpt>
      <trkpt lat="45.27579" lon="5.73806">
        <ele>964</ele>
        <time>2010-01-01T02:32:49Z</time>
      </trkpt>
      <trkpt lat="45.27531" lon="5.73817">
        <ele>953</ele>
        <time>2010-01-01T02:33:09Z</time>
      </trkpt>
      <trkpt lat="45.2749" lon="5.73832">
        <ele>942</ele>
        <time>2010-01-01T02:33:26Z</time>
      </trkpt>
      <trkpt lat="45.27448" lon="5.7383">
        <ele>927</ele>
        <time>2010-01-01T02:33:43Z</time>
      </trkpt>
      <trkpt lat="45.27401" lon="5.7381">
        <ele>915</ele>
        <time>2010-01-01T02:34:02Z</time>
      </trkpt>
      <trkpt lat="45.27366" lon="5.73823">
        <ele>900</ele>
        <time>2010-01-01T02:34:17Z</time>
      </trkpt>
      <trkpt lat="45.27318" lon="5.73847">
        <ele>886</ele>
        <time>2010-01-01T02:34:37Z</time>
      </trkpt>
      <trkpt lat="45.27291" lon="5.73866">
        <ele>875</ele>
        <time>2010-01-01T02:34:49Z</time>
      </trkpt>
      <trkpt lat="45.27327" lon="5.73903">
        <ele>876</ele>
        <time>2010-01-01T02:35:07Z</time>
      </trkpt>
      <trkpt lat="45.27355" lon="5.73943">
        <ele>876</ele>
        <time>2010-01-01T02:35:23Z</time>
      </trkpt>
      <trkpt lat="45.27345" lon="5.73969">
        <ele>867</ele>
        <time>2010-01-01T02:35:32Z</time>
      </trkpt>
      <trkpt lat="45.27307" lon="5.73956">
        <ele>864</ele>
        <time>2010-01-01T02:35:47Z</time>
      </trkpt>
      <trkpt lat="45.27263" lon="5.73935">
        <ele>856</ele>
        <time>2010-01-01T02:36:06Z</time>
      </trkpt>
      <trkpt lat="45.27217" lon="5.73922">
        <ele>846</ele>
        <time>2010-01-01T02:36:25Z</time>
      </trkpt>
      <trkpt lat="45.27159" lon="5.73915">
        <ele>833</ele>
        <time>2010-01-01T02:36:48Z</time>
      </trkpt>
      <trkpt lat="45.27133" lon="5.73894">
        <ele>832</ele>
        <time>2010-01-01T02:37:00Z</time>
      </trkpt>
      <trkpt lat="45.27087" lon="5.73898">
        <ele>815</ele>
        <time>2010-01-01T02:37:18Z</time>
      </trkpt>
      <trkpt lat="45.27064" lon="5.73898">
        <ele>812</ele>
        <time>2010-01-01T02:37:28Z</time>
      </trkpt>
      <trkpt lat="45.27079" lon="5.7392">
        <ele>808</ele>
        <time>2010-01-01T02:37:36Z</time>
      </trkpt>
      <trkpt lat="45.27108" lon="5.73937">
        <ele>814</ele>
        <time>2010-01-01T02:37:49Z</time>
      </trkpt>
      <trkpt lat="45.27127" lon="5.73969">
        <ele>815</ele>
        <time>2010-01-01T02:38:01Z</time>
      </trkpt>
      <trkpt lat="45.27114" lon="5.74042">
        <ele>794</ele>
        <time>2010-01-01T02:38:22Z</time>
      </trkpt>
      <trkpt lat="45.27161" lon="5.74046">
        <ele>806</ele>
        <time>2010-01-01T02:38:41Z</time>
      </trkpt>
      <trkpt lat="45.27152" lon="5.74081">
        <ele>801</ele>
        <time>2010-01-01T02:38:51Z</time>
      </trkpt>
      <trkpt lat="45.27123" lon="5.74124">
        <ele>801</ele>
        <time>2010-01-01T02:39:08Z</time>
      </trkpt>
      <trkpt lat="45.27078" lon="5.74197">
        <ele>827</ele>
        <time>2010-01-01T02:39:35Z</time>
      </trkpt>
      <trkpt lat="45.27011" lon="5.74229">
        <ele>829</ele>
        <time>2010-01-01T02:40:03Z</time>
      </trkpt>
      <trkpt lat="45.26984" lon="5.74267">
        <ele>837</ele>
        <time>2010-01-01T02:40:18Z</time>
      </trkpt>
      <trkpt lat="45.2697" lon="5.74297">
        <ele>839</ele>
        <time>2010-01-01T02:40:29Z</time>
      </trkpt>
      <trkpt lat="45.26966" lon="5.74364">
        <ele>848</ele>
        <time>2010-01-01T02:40:47Z</time>
      </trkpt>
      <trkpt lat="45.2691" lon="5.74418">
        <ele>837</ele>
        <time>2010-01-01T02:41:15Z</time>
      </trkpt>
      <trkpt lat="45.26872" lon="5.74521">
        <ele>844</ele>
        <time>2010-01-01T02:41:47Z</time>
      </trkpt>
      <trkpt lat="45.26824" lon="5.74555">
        <ele>849</ele>
        <time>2010-01-01T02:42:09Z</time>
      </trkpt>
      <trkpt lat="45.26805" lon="5.74645">
        <ele>875</ele>
        <time>2010-01-01T02:42:35Z</time>
      </trkpt>
      <trkpt lat="45.26794" lon="5.74676">
        <ele>880</ele>
        <time>2010-01-01T02:42:45Z</time>
      </trkpt>
      <trkpt lat="45.26795" lon="5.74707">
        <ele>888</ele>
        <time>2010-01-01T02:42:54Z</time>
      </trkpt>
      <trkpt lat="45.26799" lon="5.74795">
        <ele>909</ele>
        <time>2010-01-01T02:43:19Z</time>
      </trkpt>
      <trkpt lat="45.26799" lon="5.74885">
        <ele>931</ele>
        <time>2010-01-01T02:43:44Z</time>
      </trkpt>
      <trkpt lat="45.26809" lon="5.74941">
        <ele>939</ele>
        <time>2010-01-01T02:44:00Z</time>
      </trkpt>
      <trkpt lat="45.26825" lon="5.74988">
        <ele>947</ele>
        <time>2010-01-01T02:44:15Z</time>
      </trkpt>
      <trkpt lat="45.26822" lon="5.75044">
        <ele>948</ele>
        <time>2010-01-01T02:44:31Z</time>
      </trkpt>
      <trkpt lat="45.26833" lon="5.75091">
        <ele>955</ele>
        <time>2010-01-01T02:44:45Z</time>
      </trkpt>
      <trkpt lat="45.26878" lon="5.75115">
        <ele>965</ele>
        <time>2010-01-01T02:45:04Z</time>
      </trkpt>
      <trkpt lat="45.26924" lon="5.75136">
        <ele>960</ele>
        <time>2010-01-01T02:45:23Z</time>
      </trkpt>
      <trkpt lat="45.26954" lon="5.75184">
        <ele>960</ele>
        <time>2010-01-01T02:45:41Z</time>
      </trkpt>
      <trkpt lat="45.26954" lon="5.75197">
        <ele>961</ele>
        <time>2010-01-01T02:45:45Z</time>
      </trkpt>
      <trkpt lat="45.26913" lon="5.75173">
        <ele>952</ele>
        <time>2010-01-01T02:46:03Z</time>
      </trkpt>
      <trkpt lat="45.26872" lon="5.75177">
        <ele>944</ele>
        <time>2010-01-01T02:46:19Z</time>
      </trkpt>
      <trkpt lat="45.26853" lon="5.75207">
        <ele>927</ele>
        <time>2010-01-01T02:46:31Z</time>
      </trkpt>
      <trkpt lat="45.26816" lon="5.75207">
        <ele>915</ele>
        <time>2010-01-01T02:46:45Z</time>
      </trkpt>
      <trkpt lat="45.2675" lon="5.75235">
        <ele>900</ele>
        <time>2010-01-01T02:47:13Z</time>
      </trkpt>
      <trkpt lat="45.26789" lon="5.75261">
        <ele>910</ele>
        <time>2010-01-01T02:47:30Z</time>
      </trkpt>
      <trkpt lat="45.26813" lon="5.75291">
        <ele>919</ele>
        <time>2010-01-01T02:47:43Z</time>
      </trkpt>
      <trkpt lat="45.26831" lon="5.75342">
        <ele>938</ele>
        <time>2010-01-01T02:47:59Z</time>
      </trkpt>
      <trkpt lat="45.26872" lon="5.75379">
        <ele>953</ele>
        <time>2010-01-01T02:48:19Z</time>
      </trkpt>
      <trkpt lat="45.2689" lon="5.75413">
        <ele>966</ele>
        <time>2010-01-01T02:48:31Z</time>
      </trkpt>
      <trkpt lat="45.26918" lon="5.75458">
        <ele>984</ele>
        <time>2010-01-01T02:48:47Z</time>
      </trkpt>
      <trkpt lat="45.26933" lon="5.75521">
        <ele>994</ele>
        <time>2010-01-01T02:49:06Z</time>
      </trkpt>
      <trkpt lat="45.26961" lon="5.7554">
        <ele>1001</ele>
        <time>2010-01-01T02:49:19Z</time>
      </trkpt>
      <trkpt lat="45.26967" lon="5.75566">
        <ele>1007</ele>
        <time>2010-01-01T02:49:26Z</time>
      </trkpt>
      <trkpt lat="45.26913" lon="5.7554">
        <ele>996</ele>
        <time>2010-01-01T02:49:49Z</time>
      </trkpt>
      <trkpt lat="45.26872" lon="5.75516">
        <ele>989</ele>
        <time>2010-01-01T02:50:07Z</time>
      </trkpt>
      <trkpt lat="45.26845" lon="5.75516">
        <ele>991</ele>
        <time>2010-01-01T02:50:18Z</time>
      </trkpt>
      <trkpt lat="45.26783" lon="5.75544">
        <ele>999</ele>
        <time>2010-01-01T02:50:44Z</time>
      </trkpt>
      <trkpt lat="45.26757" lon="5.75533">
        <ele>998</ele>
        <time>2010-01-01T02:50:54Z</time>
      </trkpt>
      <trkpt lat="45.26723" lon="5.75497">
        <ele>994</ele>
        <time>2010-01-01T02:51:12Z</time>
      </trkpt>
      <trkpt lat="45.26653" lon="5.75458">
        <ele>1008</ele>
        <time>2010-01-01T02:51:42Z</time>
      </trkpt>
      <trkpt lat="45.26634" lon="5.75533">
        <ele>1039</ele>
        <time>2010-01-01T02:52:04Z</time>
      </trkpt>
      <trkpt lat="45.2662" lon="5.75557">
        <ele>1047</ele>
        <time>2010-01-01T02:52:13Z</time>
      </trkpt>
      <trkpt lat="45.2657" lon="5.75593">
        <ele>1045</ele>
        <time>2010-01-01T02:52:35Z</time>
      </trkpt>
      <trkpt lat="45.2654" lon="5.75658">
        <ele>1042</ele>
        <time>2010-01-01T02:52:57Z</time>
      </trkpt>
      <trkpt lat="45.26566" lon="5.75724">
        <ele>1061</ele>
        <time>2010-01-01T02:53:18Z</time>
      </trkpt>
      <trkpt lat="45.26577" lon="5.75866">
        <ele>1100</ele>
        <time>2010-01-01T02:53:58Z</time>
      </trkpt>
      <trkpt lat="45.26623" lon="5.759">
        <ele>1115</ele>
        <time>2010-01-01T02:54:19Z</time>
      </trkpt>
      <trkpt lat="45.26646" lon="5.75971">
        <ele>1127</ele>
        <time>2010-01-01T02:54:41Z</time>
      </trkpt>
      <trkpt lat="45.26628" lon="5.76051">
        <ele>1135</ele>
        <time>2010-01-01T02:55:05Z</time>
      </trkpt>
      <trkpt lat="45.26602" lon="5.76119">
        <ele>1139</ele>
        <time>2010-01-01T02:55:27Z</time>
      </trkpt>
      <trkpt lat="45.26576" lon="5.76164">
        <ele>1137</ele>
        <time>2010-01-01T02:55:43Z</time>
      </trkpt>
      <trkpt lat="45.26516" lon="5.76196">
        <ele>1133</ele>
        <time>2010-01-01T02:56:09Z</time>
      </trkpt>
      <trkpt lat="45.26481" lon="5.7622">
        <ele>1134</ele>
        <time>2010-01-01T02:56:24Z</time>
      </trkpt>
      <trkpt lat="45.26452" lon="5.76261">
        <ele>1129</ele>
        <time>2010-01-01T02:56:40Z</time>
      </trkpt>
      <trkpt lat="45.26446" lon="5.7631">
        <ele>1118</ele>
        <time>2010-01-01T02:56:55Z</time>
      </trkpt>
      <trkpt lat="45.26455" lon="5.76351">
        <ele>1111</ele>
        <time>2010-01-01T02:57:07Z</time>
      </trkpt>
      <trkpt lat="45.26475" lon="5.76387">
        <ele>1105</ele>
        <time>2010-01-01T02:57:20Z</time>
      </trkpt>
      <trkpt lat="45.2651" lon="5.76447">
        <ele>1105</ele>
        <time>2010-01-01T02:57:41Z</time>
      </trkpt>
      <trkpt lat="45.26519" lon="5.76514">
        <ele>1101</ele>
        <time>2010-01-01T02:58:01Z</time>
      </trkpt>
      <trkpt lat="45.26555" lon="5.76555">
        <ele>1092</ele>
        <time>2010-01-01T02:58:19Z</time>
      </trkpt>
      <trkpt lat="45.26587" lon="5.76574">
        <ele>1081</ele>
        <time>2010-01-01T02:58:33Z</time>
      </trkpt>
      <trkpt lat="45.26637" lon="5.76608">
        <ele>1064</ele>
        <time>2010-01-01T02:58:55Z</time>
      </trkpt>
      <trkpt lat="45.26664" lon="5.76632">
        <ele>1055</ele>
        <time>2010-01-01T02:59:08Z</time>
      </trkpt>
      <trkpt lat="45.26682" lon="5.76653">
        <ele>1050</ele>
        <time>2010-01-01T02:59:17Z</time>
      </trkpt>
      <trkpt lat="45.26686" lon="5.76673">
        <ele>1044</ele>
        <time>2010-01-01T02:59:23Z</time>
      </trkpt>
      <trkpt lat="45.26724" lon="5.76684">
        <ele>1053</ele>
        <time>2010-01-01T02:59:38Z</time>
      </trkpt>
      <trkpt lat="45.26745" lon="5.76701">
        <ele>1055</ele>
        <time>2010-01-01T02:59:48Z</time>
      </trkpt>
      <trkpt lat="45.26691" lon="5.76714">
        <ele>1033</ele>
        <time>2010-01-01T03:00:10Z</time>
      </trkpt>
      <trkpt lat="45.26661" lon="5.76724">
        <ele>1025</ele>
        <time>2010-01-01T03:00:23Z</time>
      </trkpt>
      <trkpt lat="45.26628" lon="5.76752">
        <ele>1020</ele>
        <time>2010-01-01T03:00:38Z</time>
      </trkpt>
      <trkpt lat="45.26614" lon="5.76795">
        <ele>1014</ele>
        <time>2010-01-01T03:00:51Z</time>
      </trkpt>
      <trkpt lat="45.266" lon="5.76832">
        <ele>1010</ele>
        <time>2010-01-01T03:01:03Z</time>
      </trkpt>
      <trkpt lat="45.26575" lon="5.76874">
        <ele>1012</ele>
        <time>2010-01-01T03:01:19Z</time>
      </trkpt>
      <trkpt lat="45.26557" lon="5.7692">
        <ele>1011</ele>
        <time>2010-01-01T03:01:34Z</time>
      </trkpt>
      <trkpt lat="45.26535" lon="5.76947">
        <ele>1007</ele>
        <time>2010-01-01T03:01:45Z</time>
      </trkpt>
      <trkpt lat="45.26492" lon="5.76977">
        <ele>1005</ele>
        <time>2010-01-01T03:02:05Z</time>
      </trkpt>
      <trkpt lat="45.26466" lon="5.77012">
        <ele>1008</ele>
        <time>2010-01-01T03:02:19Z</time>
      </trkpt>
      <trkpt lat="45.26439" lon="5.77048">
        <ele>1008</ele>
        <time>2010-01-01T03:02:34Z</time>
      </trkpt>
      <trkpt lat="45.26412" lon="5.77076">
        <ele>1007</ele>
        <time>2010-01-01T03:02:47Z</time>
      </trkpt>
      <trkpt lat="45.26371" lon="5.771">
        <ele>1005</ele>
        <time>2010-01-01T03:03:05Z</time>
      </trkpt>
      <trkpt lat="45.26353" lon="5.77115">
        <ele>1005</ele>
        <time>2010-01-01T03:03:13Z</time>
      </trkpt>
      <trkpt lat="45.26324" lon="5.77132">
        <ele>1006</ele>
        <time>2010-01-01T03:03:26Z</time>
      </trkpt>
      <trkpt lat="45.26291" lon="5.77153">
        <ele>1008</ele>
        <time>2010-01-01T03:03:40Z</time>
      </trkpt>
      <trkpt lat="45.26267" lon="5.77168">
        <ele>1009</ele>
        <time>2010-01-01T03:03:51Z</time>
      </trkpt>
      <trkpt lat="45.26244" lon="5.77183">
        <ele>1012</ele>
        <time>2010-01-01T03:04:01Z</time>
      </trkpt>
      <trkpt lat="45.26209" lon="5.77203">
        <ele>1013</ele>
        <time>2010-01-01T03:04:16Z</time>
      </trkpt>
      <trkpt lat="45.26188" lon="5.77226">
        <ele>1014</ele>
        <time>2010-01-01T03:04:26Z</time>
      </trkpt>
      <trkpt lat="45.2619" lon="5.77278">
        <ele>1016</ele>
        <time>2010-01-01T03:04:41Z</time>
      </trkpt>
      <trkpt lat="45.262" lon="5.77323">
        <ele>1018</ele>
        <time>2010-01-01T03:04:54Z</time>
      </trkpt>
      <trkpt lat="45.26215" lon="5.77353">
        <ele>1020</ele>
        <time>2010-01-01T03:05:05Z</time>
      </trkpt>
      <trkpt lat="45.26229" lon="5.77389">
        <ele>1020</ele>
        <time>2010-01-01T03:05:16Z</time>
      </trkpt>
      <trkpt lat="45.26236" lon="5.77415">
        <ele>1021</ele>
        <time>2010-01-01T03:05:24Z</time>
      </trkpt>
      <trkpt lat="45.26252" lon="5.77467">
        <ele>1023</ele>
        <time>2010-01-01T03:05:40Z</time>
      </trkpt>
      <trkpt lat="45.26252" lon="5.77497">
        <ele>1024</ele>
        <time>2010-01-01T03:05:48Z</time>
      </trkpt>
      <trkpt lat="45.2622" lon="5.77568">
        <ele>1024</ele>
        <time>2010-01-01T03:06:12Z</time>
      </trkpt>
      <trkpt lat="45.26208" lon="5.77587">
        <ele>1023</ele>
        <time>2010-01-01T03:06:19Z</time>
      </trkpt>
      <trkpt lat="45.26182" lon="5.77613">
        <ele>1021</ele>
        <time>2010-01-01T03:06:32Z</time>
      </trkpt>
      <trkpt lat="45.26164" lon="5.77636">
        <ele>1019</ele>
        <time>2010-01-01T03:06:42Z</time>
      </trkpt>
      <trkpt lat="45.26147" lon="5.77656">
        <ele>1019</ele>
        <time>2010-01-01T03:06:50Z</time>
      </trkpt>
      <trkpt lat="45.26128" lon="5.7769">
        <ele>1019</ele>
        <time>2010-01-01T03:07:03Z</time>
      </trkpt>
      <trkpt lat="45.2612" lon="5.77726">
        <ele>1019</ele>
        <time>2010-01-01T03:07:13Z</time>
      </trkpt>
      <trkpt lat="45.26087" lon="5.77733">
        <ele>1017</ele>
        <time>2010-01-01T03:07:27Z</time>
      </trkpt>
      <trkpt lat="45.26051" lon="5.77735">
        <ele>1013</ele>
        <time>2010-01-01T03:07:41Z</time>
      </trkpt>
      <trkpt lat="45.26022" lon="5.77737">
        <ele>1010</ele>
        <time>2010-01-01T03:07:53Z</time>
      </trkpt>
      <trkpt lat="45.26001" lon="5.77731">
        <ele>1009</ele>
        <time>2010-01-01T03:08:02Z</time>
      </trkpt>
    </trkseg>
  </trk>
</gpx>